<?xml version="1.0" encoding="UTF-8" standalone="no" ?>
<gpx xmlns="http://www.topografix.com/GPX/1/1" xmlns:xsi="http://www.w3.org/2001/XMLSchema-instance" xsi:schemaLocation="http://www.topografix.com/GPX/1/1 http://www.topografix.com/GPX/1/1/gpx.xsd" version="1.1" creator="VisuGPX - https://www.visugpx.com">
  <metadata>
    <name>le faouet</name>
    <desc><![CDATA[rando du Faouet  30 km incomplet cause piles mortes !!]]></desc>
  </metadata>
  <wpt lat="47.28195" lon="-2.2425">
    <ele>25</ele>
    <name><![CDATA[002]]></name>
  </wpt>
  <wpt lat="38.85555" lon="-94.79902">
    <ele>3.01</ele>
    <name><![CDATA[GARMIN]]></name>
  </wpt>
  <wpt lat="50.98288" lon="-1.4639">
    <ele>3.01</ele>
    <name><![CDATA[GRMEUR]]></name>
  </wpt>
  <wpt lat="25.06178" lon="121.64027">
    <ele>3.01</ele>
    <name><![CDATA[GRMTWN]]></name>
  </wpt>
  <wpt lat="47.87632" lon="-3.01188">
    <ele>40.02</ele>
    <name><![CDATA[H]]></name>
  </wpt>
  <trk>
    <name><![CDATA[ACTIVE LOG: 03 JUN 2012 07:21]]></name>
    <trkseg>
      <trkpt lat="48.03131" lon="-3.50394">
        <ele>143.85</ele>
        <time>2012-06-03T06:21:14Z</time>
      </trkpt>
      <trkpt lat="48.03125" lon="-3.50438">
        <ele>144.34</ele>
        <time>2012-06-03T06:21:27Z</time>
      </trkpt>
      <trkpt lat="48.03117" lon="-3.50433">
        <ele>145.78</ele>
        <time>2012-06-03T06:21:32Z</time>
      </trkpt>
      <trkpt lat="48.03105" lon="-3.50422">
        <ele>147.22</ele>
        <time>2012-06-03T06:21:37Z</time>
      </trkpt>
      <trkpt lat="48.03059" lon="-3.50412">
        <ele>149.62</ele>
        <time>2012-06-03T06:21:49Z</time>
      </trkpt>
      <trkpt lat="48.03046" lon="-3.50426">
        <ele>145.3</ele>
        <time>2012-06-03T06:21:55Z</time>
      </trkpt>
      <trkpt lat="48.03052" lon="-3.50432">
        <ele>145.3</ele>
        <time>2012-06-03T06:21:57Z</time>
      </trkpt>
      <trkpt lat="48.03091" lon="-3.50439">
        <ele>140.01</ele>
        <time>2012-06-03T06:22:08Z</time>
      </trkpt>
      <trkpt lat="48.0313" lon="-3.50456">
        <ele>129.43</ele>
        <time>2012-06-03T06:22:18Z</time>
      </trkpt>
      <trkpt lat="48.03153" lon="-3.50481">
        <ele>128.95</ele>
        <time>2012-06-03T06:22:27Z</time>
      </trkpt>
      <trkpt lat="48.03188" lon="-3.50486">
        <ele>132.32</ele>
        <time>2012-06-03T06:22:38Z</time>
      </trkpt>
      <trkpt lat="48.03224" lon="-3.50497">
        <ele>134.24</ele>
        <time>2012-06-03T06:22:48Z</time>
      </trkpt>
      <trkpt lat="48.03256" lon="-3.5051">
        <ele>135.68</ele>
        <time>2012-06-03T06:22:58Z</time>
      </trkpt>
      <trkpt lat="48.03291" lon="-3.50515">
        <ele>135.68</ele>
        <time>2012-06-03T06:23:09Z</time>
      </trkpt>
      <trkpt lat="48.03341" lon="-3.50518">
        <ele>133.76</ele>
        <time>2012-06-03T06:23:21Z</time>
      </trkpt>
      <trkpt lat="48.03387" lon="-3.50526">
        <ele>137.13</ele>
        <time>2012-06-03T06:23:34Z</time>
      </trkpt>
      <trkpt lat="48.03403" lon="-3.50532">
        <ele>137.61</ele>
        <time>2012-06-03T06:23:39Z</time>
      </trkpt>
      <trkpt lat="48.03416" lon="-3.50543">
        <ele>137.13</ele>
        <time>2012-06-03T06:23:43Z</time>
      </trkpt>
      <trkpt lat="48.03423" lon="-3.50553">
        <ele>135.68</ele>
        <time>2012-06-03T06:23:45Z</time>
      </trkpt>
      <trkpt lat="48.0345" lon="-3.50573">
        <ele>131.84</ele>
        <time>2012-06-03T06:23:50Z</time>
      </trkpt>
      <trkpt lat="48.03457" lon="-3.50573">
        <ele>129.92</ele>
        <time>2012-06-03T06:23:52Z</time>
      </trkpt>
      <trkpt lat="48.03482" lon="-3.5058">
        <ele>127.51</ele>
        <time>2012-06-03T06:23:58Z</time>
      </trkpt>
      <trkpt lat="48.03494" lon="-3.50563">
        <ele>127.51</ele>
        <time>2012-06-03T06:24:04Z</time>
      </trkpt>
      <trkpt lat="48.03494" lon="-3.50551">
        <ele>127.51</ele>
        <time>2012-06-03T06:24:06Z</time>
      </trkpt>
      <trkpt lat="48.03497" lon="-3.50438">
        <ele>130.88</ele>
        <time>2012-06-03T06:24:24Z</time>
      </trkpt>
      <trkpt lat="48.03488" lon="-3.50313">
        <ele>137.13</ele>
        <time>2012-06-03T06:24:45Z</time>
      </trkpt>
      <trkpt lat="48.03467" lon="-3.50171">
        <ele>141.93</ele>
        <time>2012-06-03T06:25:08Z</time>
      </trkpt>
      <trkpt lat="48.03472" lon="-3.50042">
        <ele>143.37</ele>
        <time>2012-06-03T06:25:25Z</time>
      </trkpt>
      <trkpt lat="48.0348" lon="-3.50032">
        <ele>144.82</ele>
        <time>2012-06-03T06:25:29Z</time>
      </trkpt>
      <trkpt lat="48.0349" lon="-3.50038">
        <ele>146.74</ele>
        <time>2012-06-03T06:25:32Z</time>
      </trkpt>
      <trkpt lat="48.03524" lon="-3.50031">
        <ele>146.74</ele>
        <time>2012-06-03T06:25:39Z</time>
      </trkpt>
      <trkpt lat="48.03544" lon="-3.50026">
        <ele>146.74</ele>
        <time>2012-06-03T06:25:43Z</time>
      </trkpt>
      <trkpt lat="48.03561" lon="-3.50024">
        <ele>146.74</ele>
        <time>2012-06-03T06:25:46Z</time>
      </trkpt>
      <trkpt lat="48.03573" lon="-3.50024">
        <ele>145.78</ele>
        <time>2012-06-03T06:25:48Z</time>
      </trkpt>
      <trkpt lat="48.036" lon="-3.50003">
        <ele>143.85</ele>
        <time>2012-06-03T06:25:53Z</time>
      </trkpt>
      <trkpt lat="48.03631" lon="-3.49981">
        <ele>142.41</ele>
        <time>2012-06-03T06:25:58Z</time>
      </trkpt>
      <trkpt lat="48.03656" lon="-3.49962">
        <ele>142.89</ele>
        <time>2012-06-03T06:26:01Z</time>
      </trkpt>
      <trkpt lat="48.03693" lon="-3.49972">
        <ele>143.37</ele>
        <time>2012-06-03T06:26:08Z</time>
      </trkpt>
      <trkpt lat="48.03719" lon="-3.49996">
        <ele>143.37</ele>
        <time>2012-06-03T06:26:12Z</time>
      </trkpt>
      <trkpt lat="48.03738" lon="-3.50025">
        <ele>142.89</ele>
        <time>2012-06-03T06:26:15Z</time>
      </trkpt>
      <trkpt lat="48.03762" lon="-3.50056">
        <ele>142.41</ele>
        <time>2012-06-03T06:26:19Z</time>
      </trkpt>
      <trkpt lat="48.03769" lon="-3.50089">
        <ele>140.97</ele>
        <time>2012-06-03T06:26:23Z</time>
      </trkpt>
      <trkpt lat="48.03793" lon="-3.50153">
        <ele>140.49</ele>
        <time>2012-06-03T06:26:31Z</time>
      </trkpt>
      <trkpt lat="48.038" lon="-3.50157">
        <ele>141.45</ele>
        <time>2012-06-03T06:26:33Z</time>
      </trkpt>
      <trkpt lat="48.0382" lon="-3.50168">
        <ele>148.66</ele>
        <time>2012-06-03T06:26:42Z</time>
      </trkpt>
      <trkpt lat="48.03845" lon="-3.50223">
        <ele>152.51</ele>
        <time>2012-06-03T06:26:52Z</time>
      </trkpt>
      <trkpt lat="48.03847" lon="-3.50229">
        <ele>152.99</ele>
        <time>2012-06-03T06:26:53Z</time>
      </trkpt>
      <trkpt lat="48.03867" lon="-3.50242">
        <ele>154.91</ele>
        <time>2012-06-03T06:27:00Z</time>
      </trkpt>
      <trkpt lat="48.03943" lon="-3.50241">
        <ele>150.1</ele>
        <time>2012-06-03T06:27:19Z</time>
      </trkpt>
      <trkpt lat="48.0398" lon="-3.50229">
        <ele>150.58</ele>
        <time>2012-06-03T06:27:28Z</time>
      </trkpt>
      <trkpt lat="48.03984" lon="-3.50192">
        <ele>149.62</ele>
        <time>2012-06-03T06:27:35Z</time>
      </trkpt>
      <trkpt lat="48.03943" lon="-3.50104">
        <ele>152.99</ele>
        <time>2012-06-03T06:27:53Z</time>
      </trkpt>
      <trkpt lat="48.03916" lon="-3.50009">
        <ele>156.83</ele>
        <time>2012-06-03T06:28:11Z</time>
      </trkpt>
      <trkpt lat="48.03913" lon="-3.49956">
        <ele>157.31</ele>
        <time>2012-06-03T06:28:20Z</time>
      </trkpt>
      <trkpt lat="48.03913" lon="-3.49931">
        <ele>157.31</ele>
        <time>2012-06-03T06:28:24Z</time>
      </trkpt>
      <trkpt lat="48.03933" lon="-3.49923">
        <ele>159.72</ele>
        <time>2012-06-03T06:28:30Z</time>
      </trkpt>
      <trkpt lat="48.03956" lon="-3.4997">
        <ele>163.56</ele>
        <time>2012-06-03T06:28:41Z</time>
      </trkpt>
      <trkpt lat="48.03968" lon="-3.49984">
        <ele>165.96</ele>
        <time>2012-06-03T06:28:50Z</time>
      </trkpt>
      <trkpt lat="48.03976" lon="-3.49989">
        <ele>166.93</ele>
        <time>2012-06-03T06:28:53Z</time>
      </trkpt>
      <trkpt lat="48.04015" lon="-3.50002">
        <ele>168.37</ele>
        <time>2012-06-03T06:29:08Z</time>
      </trkpt>
      <trkpt lat="48.04042" lon="-3.50017">
        <ele>169.33</ele>
        <time>2012-06-03T06:29:19Z</time>
      </trkpt>
      <trkpt lat="48.04064" lon="-3.50033">
        <ele>168.85</ele>
        <time>2012-06-03T06:29:26Z</time>
      </trkpt>
      <trkpt lat="48.04081" lon="-3.50036">
        <ele>168.85</ele>
        <time>2012-06-03T06:29:31Z</time>
      </trkpt>
      <trkpt lat="48.04093" lon="-3.50039">
        <ele>169.33</ele>
        <time>2012-06-03T06:29:34Z</time>
      </trkpt>
      <trkpt lat="48.0411" lon="-3.50042">
        <ele>169.81</ele>
        <time>2012-06-03T06:29:40Z</time>
      </trkpt>
      <trkpt lat="48.04142" lon="-3.50064">
        <ele>171.25</ele>
        <time>2012-06-03T06:29:53Z</time>
      </trkpt>
      <trkpt lat="48.04167" lon="-3.50079">
        <ele>173.66</ele>
        <time>2012-06-03T06:30:03Z</time>
      </trkpt>
      <trkpt lat="48.04182" lon="-3.50101">
        <ele>175.1</ele>
        <time>2012-06-03T06:30:11Z</time>
      </trkpt>
      <trkpt lat="48.04189" lon="-3.50106">
        <ele>176.06</ele>
        <time>2012-06-03T06:30:14Z</time>
      </trkpt>
      <trkpt lat="48.04196" lon="-3.50108">
        <ele>176.06</ele>
        <time>2012-06-03T06:30:17Z</time>
      </trkpt>
      <trkpt lat="48.04205" lon="-3.50108">
        <ele>177.5</ele>
        <time>2012-06-03T06:30:23Z</time>
      </trkpt>
      <trkpt lat="48.04228" lon="-3.50089">
        <ele>177.02</ele>
        <time>2012-06-03T06:30:33Z</time>
      </trkpt>
      <trkpt lat="48.04246" lon="-3.50095">
        <ele>177.02</ele>
        <time>2012-06-03T06:30:42Z</time>
      </trkpt>
      <trkpt lat="48.04249" lon="-3.50095">
        <ele>176.54</ele>
        <time>2012-06-03T06:30:43Z</time>
      </trkpt>
      <trkpt lat="48.04256" lon="-3.50097">
        <ele>176.54</ele>
        <time>2012-06-03T06:30:45Z</time>
      </trkpt>
      <trkpt lat="48.04305" lon="-3.50134">
        <ele>176.54</ele>
        <time>2012-06-03T06:30:56Z</time>
      </trkpt>
      <trkpt lat="48.04325" lon="-3.50142">
        <ele>175.1</ele>
        <time>2012-06-03T06:31:02Z</time>
      </trkpt>
      <trkpt lat="48.04343" lon="-3.50125">
        <ele>174.14</ele>
        <time>2012-06-03T06:31:08Z</time>
      </trkpt>
      <trkpt lat="48.0435" lon="-3.501">
        <ele>173.66</ele>
        <time>2012-06-03T06:31:12Z</time>
      </trkpt>
      <trkpt lat="48.04369" lon="-3.50097">
        <ele>174.14</ele>
        <time>2012-06-03T06:31:17Z</time>
      </trkpt>
      <trkpt lat="48.04441" lon="-3.50176">
        <ele>177.98</ele>
        <time>2012-06-03T06:31:31Z</time>
      </trkpt>
      <trkpt lat="48.04484" lon="-3.50219">
        <ele>180.38</ele>
        <time>2012-06-03T06:31:40Z</time>
      </trkpt>
      <trkpt lat="48.04495" lon="-3.50233">
        <ele>179.9</ele>
        <time>2012-06-03T06:31:43Z</time>
      </trkpt>
      <trkpt lat="48.04517" lon="-3.50253">
        <ele>178.46</ele>
        <time>2012-06-03T06:31:47Z</time>
      </trkpt>
      <trkpt lat="48.04592" lon="-3.50319">
        <ele>176.54</ele>
        <time>2012-06-03T06:31:57Z</time>
      </trkpt>
      <trkpt lat="48.04612" lon="-3.50336">
        <ele>175.58</ele>
        <time>2012-06-03T06:32:00Z</time>
      </trkpt>
      <trkpt lat="48.04629" lon="-3.50352">
        <ele>174.62</ele>
        <time>2012-06-03T06:32:03Z</time>
      </trkpt>
      <trkpt lat="48.04653" lon="-3.50367">
        <ele>173.17</ele>
        <time>2012-06-03T06:32:07Z</time>
      </trkpt>
      <trkpt lat="48.04705" lon="-3.50395">
        <ele>168.37</ele>
        <time>2012-06-03T06:32:16Z</time>
      </trkpt>
      <trkpt lat="48.04736" lon="-3.50413">
        <ele>165</ele>
        <time>2012-06-03T06:32:22Z</time>
      </trkpt>
      <trkpt lat="48.04771" lon="-3.50437">
        <ele>162.6</ele>
        <time>2012-06-03T06:32:29Z</time>
      </trkpt>
      <trkpt lat="48.04797" lon="-3.50441">
        <ele>162.6</ele>
        <time>2012-06-03T06:32:36Z</time>
      </trkpt>
      <trkpt lat="48.0479" lon="-3.50419">
        <ele>162.6</ele>
        <time>2012-06-03T06:32:39Z</time>
      </trkpt>
      <trkpt lat="48.04787" lon="-3.5037">
        <ele>165.48</ele>
        <time>2012-06-03T06:32:45Z</time>
      </trkpt>
      <trkpt lat="48.04789" lon="-3.50346">
        <ele>166.93</ele>
        <time>2012-06-03T06:32:49Z</time>
      </trkpt>
      <trkpt lat="48.04794" lon="-3.50197">
        <ele>174.62</ele>
        <time>2012-06-03T06:33:12Z</time>
      </trkpt>
      <trkpt lat="48.04796" lon="-3.50058">
        <ele>172.69</ele>
        <time>2012-06-03T06:33:28Z</time>
      </trkpt>
      <trkpt lat="48.04831" lon="-3.49844">
        <ele>171.25</ele>
        <time>2012-06-03T06:33:47Z</time>
      </trkpt>
      <trkpt lat="48.04837" lon="-3.49766">
        <ele>172.21</ele>
        <time>2012-06-03T06:33:56Z</time>
      </trkpt>
      <trkpt lat="48.04836" lon="-3.49761">
        <ele>172.69</ele>
        <time>2012-06-03T06:33:58Z</time>
      </trkpt>
      <trkpt lat="48.0485" lon="-3.49747">
        <ele>173.66</ele>
        <time>2012-06-03T06:34:02Z</time>
      </trkpt>
      <trkpt lat="48.04879" lon="-3.49692">
        <ele>175.1</ele>
        <time>2012-06-03T06:34:10Z</time>
      </trkpt>
      <trkpt lat="48.0488" lon="-3.49655">
        <ele>174.62</ele>
        <time>2012-06-03T06:34:14Z</time>
      </trkpt>
      <trkpt lat="48.04863" lon="-3.49642">
        <ele>174.14</ele>
        <time>2012-06-03T06:34:18Z</time>
      </trkpt>
      <trkpt lat="48.04826" lon="-3.49607">
        <ele>172.69</ele>
        <time>2012-06-03T06:34:26Z</time>
      </trkpt>
      <trkpt lat="48.04732" lon="-3.49538">
        <ele>168.37</ele>
        <time>2012-06-03T06:34:41Z</time>
      </trkpt>
      <trkpt lat="48.04635" lon="-3.49471">
        <ele>164.04</ele>
        <time>2012-06-03T06:34:58Z</time>
      </trkpt>
      <trkpt lat="48.04603" lon="-3.49456">
        <ele>163.56</ele>
        <time>2012-06-03T06:35:04Z</time>
      </trkpt>
      <trkpt lat="48.04559" lon="-3.49421">
        <ele>161.64</ele>
        <time>2012-06-03T06:35:12Z</time>
      </trkpt>
      <trkpt lat="48.0454" lon="-3.49411">
        <ele>161.64</ele>
        <time>2012-06-03T06:35:15Z</time>
      </trkpt>
      <trkpt lat="48.04516" lon="-3.49401">
        <ele>162.6</ele>
        <time>2012-06-03T06:35:21Z</time>
      </trkpt>
      <trkpt lat="48.04504" lon="-3.49394">
        <ele>162.12</ele>
        <time>2012-06-03T06:35:24Z</time>
      </trkpt>
      <trkpt lat="48.04499" lon="-3.49373">
        <ele>161.64</ele>
        <time>2012-06-03T06:35:28Z</time>
      </trkpt>
      <trkpt lat="48.04512" lon="-3.49341">
        <ele>163.56</ele>
        <time>2012-06-03T06:35:33Z</time>
      </trkpt>
      <trkpt lat="48.04514" lon="-3.49313">
        <ele>165.48</ele>
        <time>2012-06-03T06:35:37Z</time>
      </trkpt>
      <trkpt lat="48.04481" lon="-3.49243">
        <ele>169.81</ele>
        <time>2012-06-03T06:35:50Z</time>
      </trkpt>
      <trkpt lat="48.04449" lon="-3.49169">
        <ele>171.73</ele>
        <time>2012-06-03T06:36:03Z</time>
      </trkpt>
      <trkpt lat="48.04448" lon="-3.49156">
        <ele>171.73</ele>
        <time>2012-06-03T06:36:05Z</time>
      </trkpt>
      <trkpt lat="48.04435" lon="-3.49082">
        <ele>170.29</ele>
        <time>2012-06-03T06:36:15Z</time>
      </trkpt>
      <trkpt lat="48.04402" lon="-3.4889">
        <ele>174.62</ele>
        <time>2012-06-03T06:36:38Z</time>
      </trkpt>
      <trkpt lat="48.04393" lon="-3.48852">
        <ele>174.14</ele>
        <time>2012-06-03T06:36:42Z</time>
      </trkpt>
      <trkpt lat="48.04389" lon="-3.48734">
        <ele>175.1</ele>
        <time>2012-06-03T06:36:54Z</time>
      </trkpt>
      <trkpt lat="48.04388" lon="-3.48723">
        <ele>175.1</ele>
        <time>2012-06-03T06:36:55Z</time>
      </trkpt>
      <trkpt lat="48.04365" lon="-3.48562">
        <ele>173.17</ele>
        <time>2012-06-03T06:37:08Z</time>
      </trkpt>
      <trkpt lat="48.04363" lon="-3.48536">
        <ele>171.25</ele>
        <time>2012-06-03T06:37:10Z</time>
      </trkpt>
      <trkpt lat="48.04367" lon="-3.48501">
        <ele>167.41</ele>
        <time>2012-06-03T06:37:16Z</time>
      </trkpt>
      <trkpt lat="48.04383" lon="-3.48508">
        <ele>166.45</ele>
        <time>2012-06-03T06:37:22Z</time>
      </trkpt>
      <trkpt lat="48.04411" lon="-3.4853">
        <ele>165</ele>
        <time>2012-06-03T06:37:32Z</time>
      </trkpt>
      <trkpt lat="48.04421" lon="-3.48521">
        <ele>164.04</ele>
        <time>2012-06-03T06:37:38Z</time>
      </trkpt>
      <trkpt lat="48.04433" lon="-3.48496">
        <ele>165</ele>
        <time>2012-06-03T06:37:47Z</time>
      </trkpt>
      <trkpt lat="48.04463" lon="-3.48466">
        <ele>171.73</ele>
        <time>2012-06-03T06:37:59Z</time>
      </trkpt>
      <trkpt lat="48.04496" lon="-3.48424">
        <ele>178.46</ele>
        <time>2012-06-03T06:38:08Z</time>
      </trkpt>
      <trkpt lat="48.04522" lon="-3.48413">
        <ele>177.98</ele>
        <time>2012-06-03T06:38:16Z</time>
      </trkpt>
      <trkpt lat="48.04537" lon="-3.48416">
        <ele>175.1</ele>
        <time>2012-06-03T06:38:19Z</time>
      </trkpt>
      <trkpt lat="48.04548" lon="-3.48419">
        <ele>174.62</ele>
        <time>2012-06-03T06:38:21Z</time>
      </trkpt>
      <trkpt lat="48.04561" lon="-3.48427">
        <ele>171.73</ele>
        <time>2012-06-03T06:38:24Z</time>
      </trkpt>
      <trkpt lat="48.04595" lon="-3.48447">
        <ele>166.45</ele>
        <time>2012-06-03T06:38:32Z</time>
      </trkpt>
      <trkpt lat="48.04599" lon="-3.4845">
        <ele>165.96</ele>
        <time>2012-06-03T06:38:33Z</time>
      </trkpt>
      <trkpt lat="48.04611" lon="-3.48466">
        <ele>164.04</ele>
        <time>2012-06-03T06:38:37Z</time>
      </trkpt>
      <trkpt lat="48.04627" lon="-3.48462">
        <ele>162.12</ele>
        <time>2012-06-03T06:38:42Z</time>
      </trkpt>
      <trkpt lat="48.04647" lon="-3.48441">
        <ele>159.72</ele>
        <time>2012-06-03T06:38:50Z</time>
      </trkpt>
      <trkpt lat="48.04698" lon="-3.48417">
        <ele>163.56</ele>
        <time>2012-06-03T06:39:00Z</time>
      </trkpt>
      <trkpt lat="48.04706" lon="-3.48414">
        <ele>164.04</ele>
        <time>2012-06-03T06:39:03Z</time>
      </trkpt>
      <trkpt lat="48.04723" lon="-3.48417">
        <ele>162.6</ele>
        <time>2012-06-03T06:39:09Z</time>
      </trkpt>
      <trkpt lat="48.0473" lon="-3.48412">
        <ele>161.64</ele>
        <time>2012-06-03T06:39:13Z</time>
      </trkpt>
      <trkpt lat="48.04748" lon="-3.48406">
        <ele>155.87</ele>
        <time>2012-06-03T06:39:20Z</time>
      </trkpt>
      <trkpt lat="48.04762" lon="-3.484">
        <ele>151.06</ele>
        <time>2012-06-03T06:39:28Z</time>
      </trkpt>
      <trkpt lat="48.04765" lon="-3.48402">
        <ele>148.66</ele>
        <time>2012-06-03T06:39:35Z</time>
      </trkpt>
      <trkpt lat="48.04783" lon="-3.4841">
        <ele>148.66</ele>
        <time>2012-06-03T06:39:40Z</time>
      </trkpt>
      <trkpt lat="48.04797" lon="-3.48431">
        <ele>151.06</ele>
        <time>2012-06-03T06:39:47Z</time>
      </trkpt>
      <trkpt lat="48.04803" lon="-3.48435">
        <ele>151.54</ele>
        <time>2012-06-03T06:39:50Z</time>
      </trkpt>
      <trkpt lat="48.04819" lon="-3.48465">
        <ele>154.43</ele>
        <time>2012-06-03T06:40:00Z</time>
      </trkpt>
      <trkpt lat="48.04826" lon="-3.48479">
        <ele>156.35</ele>
        <time>2012-06-03T06:40:04Z</time>
      </trkpt>
      <trkpt lat="48.04838" lon="-3.48477">
        <ele>158.27</ele>
        <time>2012-06-03T06:40:10Z</time>
      </trkpt>
      <trkpt lat="48.0484" lon="-3.48462">
        <ele>162.12</ele>
        <time>2012-06-03T06:40:16Z</time>
      </trkpt>
      <trkpt lat="48.04842" lon="-3.48453">
        <ele>164.52</ele>
        <time>2012-06-03T06:40:20Z</time>
      </trkpt>
      <trkpt lat="48.04847" lon="-3.48432">
        <ele>166.93</ele>
        <time>2012-06-03T06:40:25Z</time>
      </trkpt>
      <trkpt lat="48.04851" lon="-3.48381">
        <ele>168.85</ele>
        <time>2012-06-03T06:40:38Z</time>
      </trkpt>
      <trkpt lat="48.04862" lon="-3.48322">
        <ele>170.29</ele>
        <time>2012-06-03T06:40:54Z</time>
      </trkpt>
      <trkpt lat="48.04883" lon="-3.48296">
        <ele>177.02</ele>
        <time>2012-06-03T06:41:04Z</time>
      </trkpt>
      <trkpt lat="48.04892" lon="-3.48287">
        <ele>177.02</ele>
        <time>2012-06-03T06:41:07Z</time>
      </trkpt>
      <trkpt lat="48.04905" lon="-3.48261">
        <ele>176.06</ele>
        <time>2012-06-03T06:41:13Z</time>
      </trkpt>
      <trkpt lat="48.04946" lon="-3.48242">
        <ele>173.17</ele>
        <time>2012-06-03T06:41:23Z</time>
      </trkpt>
      <trkpt lat="48.04975" lon="-3.48234">
        <ele>173.17</ele>
        <time>2012-06-03T06:41:29Z</time>
      </trkpt>
      <trkpt lat="48.05014" lon="-3.48229">
        <ele>171.25</ele>
        <time>2012-06-03T06:41:37Z</time>
      </trkpt>
      <trkpt lat="48.05053" lon="-3.48253">
        <ele>170.77</ele>
        <time>2012-06-03T06:41:47Z</time>
      </trkpt>
      <trkpt lat="48.05063" lon="-3.4826">
        <ele>170.77</ele>
        <time>2012-06-03T06:41:50Z</time>
      </trkpt>
      <trkpt lat="48.0507" lon="-3.48282">
        <ele>171.73</ele>
        <time>2012-06-03T06:41:54Z</time>
      </trkpt>
      <trkpt lat="48.05071" lon="-3.48301">
        <ele>173.66</ele>
        <time>2012-06-03T06:41:57Z</time>
      </trkpt>
      <trkpt lat="48.05086" lon="-3.48357">
        <ele>176.06</ele>
        <time>2012-06-03T06:42:07Z</time>
      </trkpt>
      <trkpt lat="48.051" lon="-3.48389">
        <ele>177.02</ele>
        <time>2012-06-03T06:42:13Z</time>
      </trkpt>
      <trkpt lat="48.05136" lon="-3.48426">
        <ele>178.46</ele>
        <time>2012-06-03T06:42:21Z</time>
      </trkpt>
      <trkpt lat="48.05258" lon="-3.48464">
        <ele>175.58</ele>
        <time>2012-06-03T06:42:42Z</time>
      </trkpt>
      <trkpt lat="48.05366" lon="-3.48483">
        <ele>175.1</ele>
        <time>2012-06-03T06:43:00Z</time>
      </trkpt>
      <trkpt lat="48.05403" lon="-3.48491">
        <ele>175.58</ele>
        <time>2012-06-03T06:43:06Z</time>
      </trkpt>
      <trkpt lat="48.05423" lon="-3.48498">
        <ele>176.54</ele>
        <time>2012-06-03T06:43:10Z</time>
      </trkpt>
      <trkpt lat="48.05469" lon="-3.48527">
        <ele>180.87</ele>
        <time>2012-06-03T06:43:21Z</time>
      </trkpt>
      <trkpt lat="48.05497" lon="-3.48543">
        <ele>179.42</ele>
        <time>2012-06-03T06:43:28Z</time>
      </trkpt>
      <trkpt lat="48.05525" lon="-3.48535">
        <ele>177.02</ele>
        <time>2012-06-03T06:43:33Z</time>
      </trkpt>
      <trkpt lat="48.05534" lon="-3.48525">
        <ele>177.02</ele>
        <time>2012-06-03T06:43:35Z</time>
      </trkpt>
      <trkpt lat="48.05549" lon="-3.48513">
        <ele>176.06</ele>
        <time>2012-06-03T06:43:38Z</time>
      </trkpt>
      <trkpt lat="48.05567" lon="-3.48496">
        <ele>176.06</ele>
        <time>2012-06-03T06:43:42Z</time>
      </trkpt>
      <trkpt lat="48.0558" lon="-3.48508">
        <ele>177.02</ele>
        <time>2012-06-03T06:43:46Z</time>
      </trkpt>
      <trkpt lat="48.05596" lon="-3.4856">
        <ele>177.02</ele>
        <time>2012-06-03T06:43:54Z</time>
      </trkpt>
      <trkpt lat="48.05626" lon="-3.486">
        <ele>175.1</ele>
        <time>2012-06-03T06:44:02Z</time>
      </trkpt>
      <trkpt lat="48.05631" lon="-3.48628">
        <ele>170.77</ele>
        <time>2012-06-03T06:44:07Z</time>
      </trkpt>
      <trkpt lat="48.05621" lon="-3.48651">
        <ele>167.41</ele>
        <time>2012-06-03T06:44:11Z</time>
      </trkpt>
      <trkpt lat="48.05617" lon="-3.48673">
        <ele>165.96</ele>
        <time>2012-06-03T06:44:14Z</time>
      </trkpt>
      <trkpt lat="48.05611" lon="-3.48712">
        <ele>164.52</ele>
        <time>2012-06-03T06:44:19Z</time>
      </trkpt>
      <trkpt lat="48.05609" lon="-3.48737">
        <ele>165</ele>
        <time>2012-06-03T06:44:23Z</time>
      </trkpt>
      <trkpt lat="48.05608" lon="-3.48767">
        <ele>164.52</ele>
        <time>2012-06-03T06:44:27Z</time>
      </trkpt>
      <trkpt lat="48.05608" lon="-3.4879">
        <ele>164.52</ele>
        <time>2012-06-03T06:44:30Z</time>
      </trkpt>
      <trkpt lat="48.05603" lon="-3.4881">
        <ele>164.52</ele>
        <time>2012-06-03T06:44:36Z</time>
      </trkpt>
      <trkpt lat="48.05602" lon="-3.4882">
        <ele>165</ele>
        <time>2012-06-03T06:44:40Z</time>
      </trkpt>
      <trkpt lat="48.05619" lon="-3.48875">
        <ele>165.96</ele>
        <time>2012-06-03T06:44:51Z</time>
      </trkpt>
      <trkpt lat="48.05627" lon="-3.48891">
        <ele>166.93</ele>
        <time>2012-06-03T06:44:54Z</time>
      </trkpt>
      <trkpt lat="48.05637" lon="-3.48913">
        <ele>167.41</ele>
        <time>2012-06-03T06:44:58Z</time>
      </trkpt>
      <trkpt lat="48.0564" lon="-3.48938">
        <ele>167.41</ele>
        <time>2012-06-03T06:45:02Z</time>
      </trkpt>
      <trkpt lat="48.05637" lon="-3.48952">
        <ele>166.93</ele>
        <time>2012-06-03T06:45:04Z</time>
      </trkpt>
      <trkpt lat="48.05625" lon="-3.48985">
        <ele>167.41</ele>
        <time>2012-06-03T06:45:12Z</time>
      </trkpt>
      <trkpt lat="48.05617" lon="-3.49003">
        <ele>166.93</ele>
        <time>2012-06-03T06:45:16Z</time>
      </trkpt>
      <trkpt lat="48.05608" lon="-3.49019">
        <ele>165.96</ele>
        <time>2012-06-03T06:45:20Z</time>
      </trkpt>
      <trkpt lat="48.05587" lon="-3.49035">
        <ele>162.6</ele>
        <time>2012-06-03T06:45:27Z</time>
      </trkpt>
      <trkpt lat="48.05573" lon="-3.49047">
        <ele>163.08</ele>
        <time>2012-06-03T06:45:31Z</time>
      </trkpt>
      <trkpt lat="48.0555" lon="-3.49066">
        <ele>160.2</ele>
        <time>2012-06-03T06:45:37Z</time>
      </trkpt>
      <trkpt lat="48.05537" lon="-3.4908">
        <ele>163.08</ele>
        <time>2012-06-03T06:45:40Z</time>
      </trkpt>
      <trkpt lat="48.05525" lon="-3.49105">
        <ele>165</ele>
        <time>2012-06-03T06:45:45Z</time>
      </trkpt>
      <trkpt lat="48.05508" lon="-3.49144">
        <ele>167.41</ele>
        <time>2012-06-03T06:45:53Z</time>
      </trkpt>
      <trkpt lat="48.05501" lon="-3.49154">
        <ele>166.45</ele>
        <time>2012-06-03T06:45:58Z</time>
      </trkpt>
      <trkpt lat="48.05499" lon="-3.49171">
        <ele>166.93</ele>
        <time>2012-06-03T06:46:04Z</time>
      </trkpt>
      <trkpt lat="48.05497" lon="-3.49176">
        <ele>167.41</ele>
        <time>2012-06-03T06:46:06Z</time>
      </trkpt>
      <trkpt lat="48.0549" lon="-3.49206">
        <ele>169.81</ele>
        <time>2012-06-03T06:46:15Z</time>
      </trkpt>
      <trkpt lat="48.05487" lon="-3.49266">
        <ele>176.06</ele>
        <time>2012-06-03T06:46:29Z</time>
      </trkpt>
      <trkpt lat="48.05491" lon="-3.49296">
        <ele>177.98</ele>
        <time>2012-06-03T06:46:37Z</time>
      </trkpt>
      <trkpt lat="48.05497" lon="-3.49307">
        <ele>177.98</ele>
        <time>2012-06-03T06:46:41Z</time>
      </trkpt>
      <trkpt lat="48.05531" lon="-3.49327">
        <ele>175.1</ele>
        <time>2012-06-03T06:46:53Z</time>
      </trkpt>
      <trkpt lat="48.05559" lon="-3.49335">
        <ele>170.77</ele>
        <time>2012-06-03T06:47:00Z</time>
      </trkpt>
      <trkpt lat="48.05615" lon="-3.49341">
        <ele>169.33</ele>
        <time>2012-06-03T06:47:11Z</time>
      </trkpt>
      <trkpt lat="48.05619" lon="-3.49377">
        <ele>167.89</ele>
        <time>2012-06-03T06:47:17Z</time>
      </trkpt>
      <trkpt lat="48.05624" lon="-3.49392">
        <ele>168.85</ele>
        <time>2012-06-03T06:47:19Z</time>
      </trkpt>
      <trkpt lat="48.05628" lon="-3.49407">
        <ele>168.85</ele>
        <time>2012-06-03T06:47:21Z</time>
      </trkpt>
      <trkpt lat="48.05639" lon="-3.49455">
        <ele>172.21</ele>
        <time>2012-06-03T06:47:28Z</time>
      </trkpt>
      <trkpt lat="48.05642" lon="-3.49475">
        <ele>173.66</ele>
        <time>2012-06-03T06:47:31Z</time>
      </trkpt>
      <trkpt lat="48.05654" lon="-3.49498">
        <ele>175.1</ele>
        <time>2012-06-03T06:47:36Z</time>
      </trkpt>
      <trkpt lat="48.05692" lon="-3.49497">
        <ele>175.58</ele>
        <time>2012-06-03T06:47:43Z</time>
      </trkpt>
      <trkpt lat="48.05702" lon="-3.49497">
        <ele>175.1</ele>
        <time>2012-06-03T06:47:45Z</time>
      </trkpt>
      <trkpt lat="48.0571" lon="-3.49493">
        <ele>175.58</ele>
        <time>2012-06-03T06:47:47Z</time>
      </trkpt>
      <trkpt lat="48.0574" lon="-3.49437">
        <ele>176.54</ele>
        <time>2012-06-03T06:47:55Z</time>
      </trkpt>
      <trkpt lat="48.05749" lon="-3.49383">
        <ele>177.02</ele>
        <time>2012-06-03T06:48:01Z</time>
      </trkpt>
      <trkpt lat="48.0577" lon="-3.49343">
        <ele>178.46</ele>
        <time>2012-06-03T06:48:07Z</time>
      </trkpt>
      <trkpt lat="48.05779" lon="-3.4931">
        <ele>178.46</ele>
        <time>2012-06-03T06:48:11Z</time>
      </trkpt>
      <trkpt lat="48.05775" lon="-3.49264">
        <ele>177.98</ele>
        <time>2012-06-03T06:48:16Z</time>
      </trkpt>
      <trkpt lat="48.05795" lon="-3.49235">
        <ele>176.54</ele>
        <time>2012-06-03T06:48:22Z</time>
      </trkpt>
      <trkpt lat="48.05829" lon="-3.49236">
        <ele>173.17</ele>
        <time>2012-06-03T06:48:29Z</time>
      </trkpt>
      <trkpt lat="48.05835" lon="-3.49191">
        <ele>171.25</ele>
        <time>2012-06-03T06:48:38Z</time>
      </trkpt>
      <trkpt lat="48.05836" lon="-3.49178">
        <ele>170.77</ele>
        <time>2012-06-03T06:48:40Z</time>
      </trkpt>
      <trkpt lat="48.05838" lon="-3.49144">
        <ele>169.33</ele>
        <time>2012-06-03T06:48:45Z</time>
      </trkpt>
      <trkpt lat="48.0585" lon="-3.49056">
        <ele>168.85</ele>
        <time>2012-06-03T06:48:54Z</time>
      </trkpt>
      <trkpt lat="48.05862" lon="-3.49051">
        <ele>168.85</ele>
        <time>2012-06-03T06:48:58Z</time>
      </trkpt>
      <trkpt lat="48.05897" lon="-3.4905">
        <ele>168.85</ele>
        <time>2012-06-03T06:49:09Z</time>
      </trkpt>
      <trkpt lat="48.05901" lon="-3.49048">
        <ele>168.37</ele>
        <time>2012-06-03T06:49:10Z</time>
      </trkpt>
      <trkpt lat="48.05938" lon="-3.49021">
        <ele>171.25</ele>
        <time>2012-06-03T06:49:18Z</time>
      </trkpt>
      <trkpt lat="48.05961" lon="-3.49025">
        <ele>171.73</ele>
        <time>2012-06-03T06:49:25Z</time>
      </trkpt>
      <trkpt lat="48.05983" lon="-3.49066">
        <ele>168.37</ele>
        <time>2012-06-03T06:49:36Z</time>
      </trkpt>
      <trkpt lat="48.05999" lon="-3.49102">
        <ele>165</ele>
        <time>2012-06-03T06:49:44Z</time>
      </trkpt>
      <trkpt lat="48.06016" lon="-3.49146">
        <ele>171.73</ele>
        <time>2012-06-03T06:49:55Z</time>
      </trkpt>
      <trkpt lat="48.06026" lon="-3.4918">
        <ele>172.21</ele>
        <time>2012-06-03T06:50:02Z</time>
      </trkpt>
      <trkpt lat="48.0604" lon="-3.49217">
        <ele>173.66</ele>
        <time>2012-06-03T06:50:10Z</time>
      </trkpt>
      <trkpt lat="48.06041" lon="-3.49222">
        <ele>173.66</ele>
        <time>2012-06-03T06:50:11Z</time>
      </trkpt>
      <trkpt lat="48.0604" lon="-3.49237">
        <ele>174.14</ele>
        <time>2012-06-03T06:50:14Z</time>
      </trkpt>
      <trkpt lat="48.06044" lon="-3.4926">
        <ele>171.73</ele>
        <time>2012-06-03T06:50:20Z</time>
      </trkpt>
      <trkpt lat="48.06047" lon="-3.49273">
        <ele>169.33</ele>
        <time>2012-06-03T06:50:24Z</time>
      </trkpt>
      <trkpt lat="48.06052" lon="-3.49286">
        <ele>168.37</ele>
        <time>2012-06-03T06:50:27Z</time>
      </trkpt>
      <trkpt lat="48.06053" lon="-3.493">
        <ele>165</ele>
        <time>2012-06-03T06:50:31Z</time>
      </trkpt>
      <trkpt lat="48.06074" lon="-3.49309">
        <ele>159.24</ele>
        <time>2012-06-03T06:50:41Z</time>
      </trkpt>
      <trkpt lat="48.06075" lon="-3.49323">
        <ele>156.83</ele>
        <time>2012-06-03T06:50:56Z</time>
      </trkpt>
      <trkpt lat="48.06079" lon="-3.49338">
        <ele>155.39</ele>
        <time>2012-06-03T06:51:09Z</time>
      </trkpt>
      <trkpt lat="48.06078" lon="-3.49346">
        <ele>156.83</ele>
        <time>2012-06-03T06:51:17Z</time>
      </trkpt>
      <trkpt lat="48.06079" lon="-3.49358">
        <ele>162.12</ele>
        <time>2012-06-03T06:51:29Z</time>
      </trkpt>
      <trkpt lat="48.06081" lon="-3.49372">
        <ele>167.41</ele>
        <time>2012-06-03T06:51:37Z</time>
      </trkpt>
      <trkpt lat="48.06082" lon="-3.49385">
        <ele>171.25</ele>
        <time>2012-06-03T06:51:49Z</time>
      </trkpt>
      <trkpt lat="48.06094" lon="-3.49412">
        <ele>173.66</ele>
        <time>2012-06-03T06:51:58Z</time>
      </trkpt>
      <trkpt lat="48.06101" lon="-3.49433">
        <ele>174.14</ele>
        <time>2012-06-03T06:52:04Z</time>
      </trkpt>
      <trkpt lat="48.06091" lon="-3.49448">
        <ele>174.14</ele>
        <time>2012-06-03T06:52:15Z</time>
      </trkpt>
      <trkpt lat="48.06088" lon="-3.49449">
        <ele>173.17</ele>
        <time>2012-06-03T06:52:17Z</time>
      </trkpt>
      <trkpt lat="48.0608" lon="-3.49466">
        <ele>173.17</ele>
        <time>2012-06-03T06:52:22Z</time>
      </trkpt>
      <trkpt lat="48.06074" lon="-3.49476">
        <ele>171.73</ele>
        <time>2012-06-03T06:52:26Z</time>
      </trkpt>
      <trkpt lat="48.06059" lon="-3.4949">
        <ele>169.33</ele>
        <time>2012-06-03T06:52:32Z</time>
      </trkpt>
      <trkpt lat="48.06036" lon="-3.49476">
        <ele>165.48</ele>
        <time>2012-06-03T06:52:40Z</time>
      </trkpt>
      <trkpt lat="48.06025" lon="-3.49507">
        <ele>169.33</ele>
        <time>2012-06-03T06:52:48Z</time>
      </trkpt>
      <trkpt lat="48.06023" lon="-3.49517">
        <ele>169.33</ele>
        <time>2012-06-03T06:52:50Z</time>
      </trkpt>
      <trkpt lat="48.06008" lon="-3.4956">
        <ele>168.85</ele>
        <time>2012-06-03T06:52:59Z</time>
      </trkpt>
      <trkpt lat="48.05999" lon="-3.49587">
        <ele>167.89</ele>
        <time>2012-06-03T06:53:04Z</time>
      </trkpt>
      <trkpt lat="48.05995" lon="-3.49599">
        <ele>166.93</ele>
        <time>2012-06-03T06:53:06Z</time>
      </trkpt>
      <trkpt lat="48.05984" lon="-3.49659">
        <ele>168.85</ele>
        <time>2012-06-03T06:53:16Z</time>
      </trkpt>
      <trkpt lat="48.05997" lon="-3.49686">
        <ele>165.96</ele>
        <time>2012-06-03T06:53:24Z</time>
      </trkpt>
      <trkpt lat="48.06005" lon="-3.49695">
        <ele>165.96</ele>
        <time>2012-06-03T06:53:28Z</time>
      </trkpt>
      <trkpt lat="48.06" lon="-3.49734">
        <ele>167.89</ele>
        <time>2012-06-03T06:53:38Z</time>
      </trkpt>
      <trkpt lat="48.05981" lon="-3.49771">
        <ele>167.41</ele>
        <time>2012-06-03T06:53:50Z</time>
      </trkpt>
      <trkpt lat="48.05958" lon="-3.498">
        <ele>169.33</ele>
        <time>2012-06-03T06:54:02Z</time>
      </trkpt>
      <trkpt lat="48.05945" lon="-3.49808">
        <ele>168.37</ele>
        <time>2012-06-03T06:54:09Z</time>
      </trkpt>
      <trkpt lat="48.05936" lon="-3.49803">
        <ele>168.37</ele>
        <time>2012-06-03T06:54:14Z</time>
      </trkpt>
      <trkpt lat="48.05925" lon="-3.49803">
        <ele>168.85</ele>
        <time>2012-06-03T06:54:18Z</time>
      </trkpt>
      <trkpt lat="48.05905" lon="-3.49816">
        <ele>169.81</ele>
        <time>2012-06-03T06:54:26Z</time>
      </trkpt>
      <trkpt lat="48.05885" lon="-3.49856">
        <ele>173.17</ele>
        <time>2012-06-03T06:54:37Z</time>
      </trkpt>
      <trkpt lat="48.05874" lon="-3.49909">
        <ele>183.75</ele>
        <time>2012-06-03T06:54:49Z</time>
      </trkpt>
      <trkpt lat="48.05877" lon="-3.49972">
        <ele>180.38</ele>
        <time>2012-06-03T06:55:02Z</time>
      </trkpt>
      <trkpt lat="48.05873" lon="-3.49986">
        <ele>179.9</ele>
        <time>2012-06-03T06:55:05Z</time>
      </trkpt>
      <trkpt lat="48.05879" lon="-3.50004">
        <ele>180.38</ele>
        <time>2012-06-03T06:55:10Z</time>
      </trkpt>
      <trkpt lat="48.05914" lon="-3.50016">
        <ele>180.38</ele>
        <time>2012-06-03T06:55:20Z</time>
      </trkpt>
      <trkpt lat="48.05915" lon="-3.50045">
        <ele>177.5</ele>
        <time>2012-06-03T06:55:26Z</time>
      </trkpt>
      <trkpt lat="48.05916" lon="-3.50055">
        <ele>176.54</ele>
        <time>2012-06-03T06:55:28Z</time>
      </trkpt>
      <trkpt lat="48.05917" lon="-3.50104">
        <ele>174.62</ele>
        <time>2012-06-03T06:55:36Z</time>
      </trkpt>
      <trkpt lat="48.05917" lon="-3.50144">
        <ele>175.1</ele>
        <time>2012-06-03T06:55:41Z</time>
      </trkpt>
      <trkpt lat="48.05917" lon="-3.50174">
        <ele>175.58</ele>
        <time>2012-06-03T06:55:44Z</time>
      </trkpt>
      <trkpt lat="48.05928" lon="-3.50231">
        <ele>180.38</ele>
        <time>2012-06-03T06:55:56Z</time>
      </trkpt>
      <trkpt lat="48.05929" lon="-3.50236">
        <ele>180.38</ele>
        <time>2012-06-03T06:55:57Z</time>
      </trkpt>
      <trkpt lat="48.05932" lon="-3.50295">
        <ele>183.75</ele>
        <time>2012-06-03T06:56:10Z</time>
      </trkpt>
      <trkpt lat="48.05933" lon="-3.5032">
        <ele>183.75</ele>
        <time>2012-06-03T06:56:14Z</time>
      </trkpt>
      <trkpt lat="48.0593" lon="-3.5035">
        <ele>183.75</ele>
        <time>2012-06-03T06:56:21Z</time>
      </trkpt>
      <trkpt lat="48.0593" lon="-3.50393">
        <ele>183.75</ele>
        <time>2012-06-03T06:56:31Z</time>
      </trkpt>
      <trkpt lat="48.05922" lon="-3.50449">
        <ele>184.23</ele>
        <time>2012-06-03T06:56:41Z</time>
      </trkpt>
      <trkpt lat="48.05915" lon="-3.50496">
        <ele>182.79</ele>
        <time>2012-06-03T06:56:50Z</time>
      </trkpt>
      <trkpt lat="48.0591" lon="-3.50544">
        <ele>181.35</ele>
        <time>2012-06-03T06:56:59Z</time>
      </trkpt>
      <trkpt lat="48.05928" lon="-3.50588">
        <ele>178.46</ele>
        <time>2012-06-03T06:57:07Z</time>
      </trkpt>
      <trkpt lat="48.05958" lon="-3.50595">
        <ele>176.54</ele>
        <time>2012-06-03T06:57:14Z</time>
      </trkpt>
      <trkpt lat="48.05984" lon="-3.506">
        <ele>172.69</ele>
        <time>2012-06-03T06:57:20Z</time>
      </trkpt>
      <trkpt lat="48.06024" lon="-3.50608">
        <ele>164.04</ele>
        <time>2012-06-03T06:57:28Z</time>
      </trkpt>
      <trkpt lat="48.06035" lon="-3.50614">
        <ele>159.72</ele>
        <time>2012-06-03T06:57:32Z</time>
      </trkpt>
      <trkpt lat="48.0605" lon="-3.50617">
        <ele>153.47</ele>
        <time>2012-06-03T06:57:38Z</time>
      </trkpt>
      <trkpt lat="48.06057" lon="-3.50612">
        <ele>150.58</ele>
        <time>2012-06-03T06:57:52Z</time>
      </trkpt>
      <trkpt lat="48.06092" lon="-3.50613">
        <ele>155.87</ele>
        <time>2012-06-03T06:58:06Z</time>
      </trkpt>
      <trkpt lat="48.06128" lon="-3.50615">
        <ele>161.64</ele>
        <time>2012-06-03T06:58:14Z</time>
      </trkpt>
      <trkpt lat="48.06149" lon="-3.50606">
        <ele>166.45</ele>
        <time>2012-06-03T06:58:22Z</time>
      </trkpt>
      <trkpt lat="48.0616" lon="-3.50588">
        <ele>169.81</ele>
        <time>2012-06-03T06:58:27Z</time>
      </trkpt>
      <trkpt lat="48.06172" lon="-3.50556">
        <ele>171.25</ele>
        <time>2012-06-03T06:58:33Z</time>
      </trkpt>
      <trkpt lat="48.06189" lon="-3.50536">
        <ele>171.25</ele>
        <time>2012-06-03T06:58:41Z</time>
      </trkpt>
      <trkpt lat="48.06199" lon="-3.5053">
        <ele>170.77</ele>
        <time>2012-06-03T06:58:44Z</time>
      </trkpt>
      <trkpt lat="48.0622" lon="-3.50537">
        <ele>175.1</ele>
        <time>2012-06-03T06:58:50Z</time>
      </trkpt>
      <trkpt lat="48.06229" lon="-3.50538">
        <ele>173.66</ele>
        <time>2012-06-03T06:58:55Z</time>
      </trkpt>
      <trkpt lat="48.06239" lon="-3.50538">
        <ele>173.17</ele>
        <time>2012-06-03T06:59:00Z</time>
      </trkpt>
      <trkpt lat="48.06251" lon="-3.50532">
        <ele>174.14</ele>
        <time>2012-06-03T06:59:08Z</time>
      </trkpt>
      <trkpt lat="48.06259" lon="-3.50529">
        <ele>175.1</ele>
        <time>2012-06-03T06:59:12Z</time>
      </trkpt>
      <trkpt lat="48.06287" lon="-3.5053">
        <ele>177.98</ele>
        <time>2012-06-03T06:59:24Z</time>
      </trkpt>
      <trkpt lat="48.0631" lon="-3.50527">
        <ele>181.83</ele>
        <time>2012-06-03T06:59:31Z</time>
      </trkpt>
      <trkpt lat="48.06328" lon="-3.50523">
        <ele>182.79</ele>
        <time>2012-06-03T06:59:38Z</time>
      </trkpt>
      <trkpt lat="48.06335" lon="-3.50522">
        <ele>184.23</ele>
        <time>2012-06-03T06:59:42Z</time>
      </trkpt>
      <trkpt lat="48.06367" lon="-3.50513">
        <ele>181.83</ele>
        <time>2012-06-03T06:59:55Z</time>
      </trkpt>
      <trkpt lat="48.06399" lon="-3.50495">
        <ele>181.35</ele>
        <time>2012-06-03T07:00:08Z</time>
      </trkpt>
      <trkpt lat="48.0641" lon="-3.50488">
        <ele>179.42</ele>
        <time>2012-06-03T07:00:12Z</time>
      </trkpt>
      <trkpt lat="48.06436" lon="-3.50481">
        <ele>177.02</ele>
        <time>2012-06-03T07:00:21Z</time>
      </trkpt>
      <trkpt lat="48.06483" lon="-3.50464">
        <ele>172.69</ele>
        <time>2012-06-03T07:00:29Z</time>
      </trkpt>
      <trkpt lat="48.06512" lon="-3.5044">
        <ele>169.33</ele>
        <time>2012-06-03T07:00:34Z</time>
      </trkpt>
      <trkpt lat="48.06541" lon="-3.50404">
        <ele>169.33</ele>
        <time>2012-06-03T07:00:46Z</time>
      </trkpt>
      <trkpt lat="48.06551" lon="-3.50392">
        <ele>169.33</ele>
        <time>2012-06-03T07:00:49Z</time>
      </trkpt>
      <trkpt lat="48.06569" lon="-3.50365">
        <ele>169.81</ele>
        <time>2012-06-03T07:00:53Z</time>
      </trkpt>
      <trkpt lat="48.06593" lon="-3.5034">
        <ele>169.33</ele>
        <time>2012-06-03T07:00:58Z</time>
      </trkpt>
      <trkpt lat="48.06606" lon="-3.50327">
        <ele>169.33</ele>
        <time>2012-06-03T07:01:01Z</time>
      </trkpt>
      <trkpt lat="48.06627" lon="-3.50298">
        <ele>170.29</ele>
        <time>2012-06-03T07:01:06Z</time>
      </trkpt>
      <trkpt lat="48.06651" lon="-3.5031">
        <ele>177.98</ele>
        <time>2012-06-03T07:01:14Z</time>
      </trkpt>
      <trkpt lat="48.06699" lon="-3.50334">
        <ele>180.38</ele>
        <time>2012-06-03T07:01:28Z</time>
      </trkpt>
      <trkpt lat="48.0676" lon="-3.50398">
        <ele>183.27</ele>
        <time>2012-06-03T07:01:43Z</time>
      </trkpt>
      <trkpt lat="48.06782" lon="-3.50426">
        <ele>185.19</ele>
        <time>2012-06-03T07:01:49Z</time>
      </trkpt>
      <trkpt lat="48.06804" lon="-3.50457">
        <ele>188.56</ele>
        <time>2012-06-03T07:01:57Z</time>
      </trkpt>
      <trkpt lat="48.06819" lon="-3.50475">
        <ele>191.92</ele>
        <time>2012-06-03T07:02:02Z</time>
      </trkpt>
      <trkpt lat="48.06846" lon="-3.50485">
        <ele>192.4</ele>
        <time>2012-06-03T07:02:09Z</time>
      </trkpt>
      <trkpt lat="48.06885" lon="-3.50463">
        <ele>190.48</ele>
        <time>2012-06-03T07:02:19Z</time>
      </trkpt>
      <trkpt lat="48.06889" lon="-3.50468">
        <ele>189.52</ele>
        <time>2012-06-03T07:02:29Z</time>
      </trkpt>
      <trkpt lat="48.06889" lon="-3.50467">
        <ele>189.04</ele>
        <time>2012-06-03T07:03:07Z</time>
      </trkpt>
      <trkpt lat="48.06889" lon="-3.50465">
        <ele>189.04</ele>
        <time>2012-06-03T07:07:43Z</time>
      </trkpt>
      <trkpt lat="48.06892" lon="-3.50465">
        <ele>189.52</ele>
        <time>2012-06-03T07:07:46Z</time>
      </trkpt>
      <trkpt lat="48.06908" lon="-3.5047">
        <ele>188.08</ele>
        <time>2012-06-03T07:07:52Z</time>
      </trkpt>
      <trkpt lat="48.06921" lon="-3.50487">
        <ele>185.67</ele>
        <time>2012-06-03T07:07:56Z</time>
      </trkpt>
      <trkpt lat="48.06947" lon="-3.50546">
        <ele>180.38</ele>
        <time>2012-06-03T07:08:02Z</time>
      </trkpt>
      <trkpt lat="48.06967" lon="-3.50579">
        <ele>178.46</ele>
        <time>2012-06-03T07:08:10Z</time>
      </trkpt>
      <trkpt lat="48.0697" lon="-3.50582">
        <ele>178.46</ele>
        <time>2012-06-03T07:08:11Z</time>
      </trkpt>
      <trkpt lat="48.07013" lon="-3.50599">
        <ele>176.54</ele>
        <time>2012-06-03T07:08:18Z</time>
      </trkpt>
      <trkpt lat="48.07036" lon="-3.50599">
        <ele>178.46</ele>
        <time>2012-06-03T07:08:21Z</time>
      </trkpt>
      <trkpt lat="48.07087" lon="-3.5061">
        <ele>181.35</ele>
        <time>2012-06-03T07:08:33Z</time>
      </trkpt>
      <trkpt lat="48.07151" lon="-3.50652">
        <ele>183.27</ele>
        <time>2012-06-03T07:08:48Z</time>
      </trkpt>
      <trkpt lat="48.07226" lon="-3.50674">
        <ele>186.63</ele>
        <time>2012-06-03T07:08:57Z</time>
      </trkpt>
      <trkpt lat="48.07248" lon="-3.50673">
        <ele>188.08</ele>
        <time>2012-06-03T07:09:07Z</time>
      </trkpt>
      <trkpt lat="48.07251" lon="-3.50662">
        <ele>187.11</ele>
        <time>2012-06-03T07:09:15Z</time>
      </trkpt>
      <trkpt lat="48.0726" lon="-3.50658">
        <ele>186.63</ele>
        <time>2012-06-03T07:09:21Z</time>
      </trkpt>
      <trkpt lat="48.0727" lon="-3.50628">
        <ele>185.67</ele>
        <time>2012-06-03T07:09:28Z</time>
      </trkpt>
      <trkpt lat="48.07282" lon="-3.50603">
        <ele>184.23</ele>
        <time>2012-06-03T07:09:34Z</time>
      </trkpt>
      <trkpt lat="48.0729" lon="-3.50606">
        <ele>183.27</ele>
        <time>2012-06-03T07:09:36Z</time>
      </trkpt>
      <trkpt lat="48.07311" lon="-3.50617">
        <ele>182.79</ele>
        <time>2012-06-03T07:09:41Z</time>
      </trkpt>
      <trkpt lat="48.07318" lon="-3.50615">
        <ele>181.83</ele>
        <time>2012-06-03T07:09:45Z</time>
      </trkpt>
      <trkpt lat="48.07324" lon="-3.50597">
        <ele>181.35</ele>
        <time>2012-06-03T07:09:53Z</time>
      </trkpt>
      <trkpt lat="48.07312" lon="-3.50573">
        <ele>176.06</ele>
        <time>2012-06-03T07:10:01Z</time>
      </trkpt>
      <trkpt lat="48.07293" lon="-3.50556">
        <ele>171.73</ele>
        <time>2012-06-03T07:10:12Z</time>
      </trkpt>
      <trkpt lat="48.07286" lon="-3.50548">
        <ele>169.33</ele>
        <time>2012-06-03T07:10:17Z</time>
      </trkpt>
      <trkpt lat="48.07277" lon="-3.50545">
        <ele>169.33</ele>
        <time>2012-06-03T07:10:21Z</time>
      </trkpt>
      <trkpt lat="48.07267" lon="-3.50543">
        <ele>168.85</ele>
        <time>2012-06-03T07:10:25Z</time>
      </trkpt>
      <trkpt lat="48.07251" lon="-3.50539">
        <ele>167.41</ele>
        <time>2012-06-03T07:10:33Z</time>
      </trkpt>
      <trkpt lat="48.07248" lon="-3.50535">
        <ele>166.93</ele>
        <time>2012-06-03T07:10:36Z</time>
      </trkpt>
      <trkpt lat="48.07247" lon="-3.5051">
        <ele>164.52</ele>
        <time>2012-06-03T07:10:45Z</time>
      </trkpt>
      <trkpt lat="48.07246" lon="-3.50509">
        <ele>164.52</ele>
        <time>2012-06-03T07:10:46Z</time>
      </trkpt>
      <trkpt lat="48.07239" lon="-3.50498">
        <ele>163.56</ele>
        <time>2012-06-03T07:10:51Z</time>
      </trkpt>
      <trkpt lat="48.07239" lon="-3.50495">
        <ele>163.08</ele>
        <time>2012-06-03T07:10:53Z</time>
      </trkpt>
      <trkpt lat="48.07242" lon="-3.50454">
        <ele>160.68</ele>
        <time>2012-06-03T07:11:00Z</time>
      </trkpt>
      <trkpt lat="48.07252" lon="-3.50438">
        <ele>158.75</ele>
        <time>2012-06-03T07:11:04Z</time>
      </trkpt>
      <trkpt lat="48.07254" lon="-3.50445">
        <ele>156.35</ele>
        <time>2012-06-03T07:11:07Z</time>
      </trkpt>
      <trkpt lat="48.07256" lon="-3.50445">
        <ele>154.91</ele>
        <time>2012-06-03T07:11:09Z</time>
      </trkpt>
      <trkpt lat="48.07267" lon="-3.50463">
        <ele>150.58</ele>
        <time>2012-06-03T07:11:18Z</time>
      </trkpt>
      <trkpt lat="48.07275" lon="-3.50466">
        <ele>152.51</ele>
        <time>2012-06-03T07:11:22Z</time>
      </trkpt>
      <trkpt lat="48.07288" lon="-3.50485">
        <ele>153.47</ele>
        <time>2012-06-03T07:11:30Z</time>
      </trkpt>
      <trkpt lat="48.07297" lon="-3.50499">
        <ele>153.47</ele>
        <time>2012-06-03T07:11:37Z</time>
      </trkpt>
      <trkpt lat="48.07325" lon="-3.50519">
        <ele>153.95</ele>
        <time>2012-06-03T07:11:48Z</time>
      </trkpt>
      <trkpt lat="48.0734" lon="-3.50527">
        <ele>154.91</ele>
        <time>2012-06-03T07:11:54Z</time>
      </trkpt>
      <trkpt lat="48.07347" lon="-3.50526">
        <ele>155.87</ele>
        <time>2012-06-03T07:11:58Z</time>
      </trkpt>
      <trkpt lat="48.07352" lon="-3.50536">
        <ele>160.68</ele>
        <time>2012-06-03T07:12:13Z</time>
      </trkpt>
      <trkpt lat="48.07359" lon="-3.50543">
        <ele>165.48</ele>
        <time>2012-06-03T07:12:26Z</time>
      </trkpt>
      <trkpt lat="48.07375" lon="-3.50547">
        <ele>169.81</ele>
        <time>2012-06-03T07:12:45Z</time>
      </trkpt>
      <trkpt lat="48.07394" lon="-3.50544">
        <ele>173.17</ele>
        <time>2012-06-03T07:12:54Z</time>
      </trkpt>
      <trkpt lat="48.07395" lon="-3.50543">
        <ele>173.66</ele>
        <time>2012-06-03T07:12:55Z</time>
      </trkpt>
      <trkpt lat="48.07412" lon="-3.5052">
        <ele>176.54</ele>
        <time>2012-06-03T07:13:03Z</time>
      </trkpt>
      <trkpt lat="48.07423" lon="-3.50495">
        <ele>176.54</ele>
        <time>2012-06-03T07:13:08Z</time>
      </trkpt>
      <trkpt lat="48.07426" lon="-3.50476">
        <ele>174.14</ele>
        <time>2012-06-03T07:13:12Z</time>
      </trkpt>
      <trkpt lat="48.07425" lon="-3.50462">
        <ele>176.06</ele>
        <time>2012-06-03T07:13:16Z</time>
      </trkpt>
      <trkpt lat="48.0743" lon="-3.50451">
        <ele>176.06</ele>
        <time>2012-06-03T07:13:21Z</time>
      </trkpt>
      <trkpt lat="48.07447" lon="-3.50418">
        <ele>174.14</ele>
        <time>2012-06-03T07:13:29Z</time>
      </trkpt>
      <trkpt lat="48.07447" lon="-3.50406">
        <ele>173.17</ele>
        <time>2012-06-03T07:13:38Z</time>
      </trkpt>
      <trkpt lat="48.07447" lon="-3.50404">
        <ele>173.17</ele>
        <time>2012-06-03T07:13:41Z</time>
      </trkpt>
      <trkpt lat="48.07443" lon="-3.50389">
        <ele>170.29</ele>
        <time>2012-06-03T07:13:45Z</time>
      </trkpt>
      <trkpt lat="48.07429" lon="-3.50369">
        <ele>167.41</ele>
        <time>2012-06-03T07:13:49Z</time>
      </trkpt>
      <trkpt lat="48.07428" lon="-3.50358">
        <ele>165.48</ele>
        <time>2012-06-03T07:13:53Z</time>
      </trkpt>
      <trkpt lat="48.07439" lon="-3.50346">
        <ele>163.56</ele>
        <time>2012-06-03T07:13:59Z</time>
      </trkpt>
      <trkpt lat="48.07457" lon="-3.50322">
        <ele>157.31</ele>
        <time>2012-06-03T07:14:08Z</time>
      </trkpt>
      <trkpt lat="48.07467" lon="-3.5033">
        <ele>155.39</ele>
        <time>2012-06-03T07:14:13Z</time>
      </trkpt>
      <trkpt lat="48.07489" lon="-3.50339">
        <ele>153.95</ele>
        <time>2012-06-03T07:14:20Z</time>
      </trkpt>
      <trkpt lat="48.07517" lon="-3.50362">
        <ele>155.87</ele>
        <time>2012-06-03T07:14:28Z</time>
      </trkpt>
      <trkpt lat="48.07542" lon="-3.50382">
        <ele>158.27</ele>
        <time>2012-06-03T07:14:37Z</time>
      </trkpt>
      <trkpt lat="48.07563" lon="-3.50407">
        <ele>158.75</ele>
        <time>2012-06-03T07:14:45Z</time>
      </trkpt>
      <trkpt lat="48.07572" lon="-3.50433">
        <ele>158.27</ele>
        <time>2012-06-03T07:14:49Z</time>
      </trkpt>
      <trkpt lat="48.07567" lon="-3.50486">
        <ele>145.3</ele>
        <time>2012-06-03T07:14:58Z</time>
      </trkpt>
      <trkpt lat="48.07564" lon="-3.50487">
        <ele>143.85</ele>
        <time>2012-06-03T07:14:59Z</time>
      </trkpt>
      <trkpt lat="48.07556" lon="-3.50492">
        <ele>139.53</ele>
        <time>2012-06-03T07:15:03Z</time>
      </trkpt>
      <trkpt lat="48.07538" lon="-3.50507">
        <ele>136.64</ele>
        <time>2012-06-03T07:15:10Z</time>
      </trkpt>
      <trkpt lat="48.07528" lon="-3.50516">
        <ele>135.68</ele>
        <time>2012-06-03T07:15:14Z</time>
      </trkpt>
      <trkpt lat="48.07515" lon="-3.50527">
        <ele>132.8</ele>
        <time>2012-06-03T07:15:18Z</time>
      </trkpt>
      <trkpt lat="48.07506" lon="-3.50541">
        <ele>130.4</ele>
        <time>2012-06-03T07:15:26Z</time>
      </trkpt>
      <trkpt lat="48.07484" lon="-3.50568">
        <ele>130.4</ele>
        <time>2012-06-03T07:15:39Z</time>
      </trkpt>
      <trkpt lat="48.07469" lon="-3.50592">
        <ele>131.36</ele>
        <time>2012-06-03T07:15:48Z</time>
      </trkpt>
      <trkpt lat="48.07465" lon="-3.50599">
        <ele>130.88</ele>
        <time>2012-06-03T07:15:52Z</time>
      </trkpt>
      <trkpt lat="48.07456" lon="-3.50609">
        <ele>130.88</ele>
        <time>2012-06-03T07:15:59Z</time>
      </trkpt>
      <trkpt lat="48.07454" lon="-3.50648">
        <ele>135.68</ele>
        <time>2012-06-03T07:16:06Z</time>
      </trkpt>
      <trkpt lat="48.07467" lon="-3.50701">
        <ele>136.64</ele>
        <time>2012-06-03T07:16:14Z</time>
      </trkpt>
      <trkpt lat="48.07471" lon="-3.50738">
        <ele>138.09</ele>
        <time>2012-06-03T07:16:19Z</time>
      </trkpt>
      <trkpt lat="48.07488" lon="-3.50756">
        <ele>139.53</ele>
        <time>2012-06-03T07:16:24Z</time>
      </trkpt>
      <trkpt lat="48.0751" lon="-3.50765">
        <ele>147.22</ele>
        <time>2012-06-03T07:16:36Z</time>
      </trkpt>
      <trkpt lat="48.07517" lon="-3.5076">
        <ele>151.06</ele>
        <time>2012-06-03T07:16:43Z</time>
      </trkpt>
      <trkpt lat="48.07525" lon="-3.50757">
        <ele>153.95</ele>
        <time>2012-06-03T07:16:47Z</time>
      </trkpt>
      <trkpt lat="48.07528" lon="-3.50754">
        <ele>154.91</ele>
        <time>2012-06-03T07:16:49Z</time>
      </trkpt>
      <trkpt lat="48.07548" lon="-3.50743">
        <ele>162.12</ele>
        <time>2012-06-03T07:17:00Z</time>
      </trkpt>
      <trkpt lat="48.07557" lon="-3.50744">
        <ele>165.96</ele>
        <time>2012-06-03T07:17:05Z</time>
      </trkpt>
      <trkpt lat="48.07571" lon="-3.50752">
        <ele>169.81</ele>
        <time>2012-06-03T07:17:15Z</time>
      </trkpt>
      <trkpt lat="48.07596" lon="-3.50759">
        <ele>174.14</ele>
        <time>2012-06-03T07:17:29Z</time>
      </trkpt>
      <trkpt lat="48.07608" lon="-3.50761">
        <ele>176.06</ele>
        <time>2012-06-03T07:17:36Z</time>
      </trkpt>
      <trkpt lat="48.07627" lon="-3.50766">
        <ele>179.42</ele>
        <time>2012-06-03T07:17:46Z</time>
      </trkpt>
      <trkpt lat="48.07644" lon="-3.5077">
        <ele>181.35</ele>
        <time>2012-06-03T07:17:55Z</time>
      </trkpt>
      <trkpt lat="48.07658" lon="-3.50772">
        <ele>180.38</ele>
        <time>2012-06-03T07:18:03Z</time>
      </trkpt>
      <trkpt lat="48.07661" lon="-3.50774">
        <ele>180.38</ele>
        <time>2012-06-03T07:18:05Z</time>
      </trkpt>
      <trkpt lat="48.0767" lon="-3.50778">
        <ele>179.9</ele>
        <time>2012-06-03T07:18:10Z</time>
      </trkpt>
      <trkpt lat="48.07696" lon="-3.50786">
        <ele>183.27</ele>
        <time>2012-06-03T07:18:23Z</time>
      </trkpt>
      <trkpt lat="48.07747" lon="-3.50798">
        <ele>187.11</ele>
        <time>2012-06-03T07:18:47Z</time>
      </trkpt>
      <trkpt lat="48.07785" lon="-3.50806">
        <ele>189.52</ele>
        <time>2012-06-03T07:19:05Z</time>
      </trkpt>
      <trkpt lat="48.07832" lon="-3.50796">
        <ele>192.4</ele>
        <time>2012-06-03T07:19:25Z</time>
      </trkpt>
      <trkpt lat="48.07871" lon="-3.50784">
        <ele>193.36</ele>
        <time>2012-06-03T07:19:42Z</time>
      </trkpt>
      <trkpt lat="48.07878" lon="-3.50782">
        <ele>193.36</ele>
        <time>2012-06-03T07:19:45Z</time>
      </trkpt>
      <trkpt lat="48.07892" lon="-3.50778">
        <ele>193.84</ele>
        <time>2012-06-03T07:19:51Z</time>
      </trkpt>
      <trkpt lat="48.07923" lon="-3.5077">
        <ele>194.32</ele>
        <time>2012-06-03T07:20:07Z</time>
      </trkpt>
      <trkpt lat="48.0794" lon="-3.50765">
        <ele>193.84</ele>
        <time>2012-06-03T07:20:23Z</time>
      </trkpt>
      <trkpt lat="48.07963" lon="-3.50758">
        <ele>190.96</ele>
        <time>2012-06-03T07:20:32Z</time>
      </trkpt>
      <trkpt lat="48.07969" lon="-3.50734">
        <ele>187.11</ele>
        <time>2012-06-03T07:20:39Z</time>
      </trkpt>
      <trkpt lat="48.07935" lon="-3.5062">
        <ele>179.42</ele>
        <time>2012-06-03T07:20:51Z</time>
      </trkpt>
      <trkpt lat="48.07902" lon="-3.505">
        <ele>177.5</ele>
        <time>2012-06-03T07:21:04Z</time>
      </trkpt>
      <trkpt lat="48.07896" lon="-3.50478">
        <ele>177.98</ele>
        <time>2012-06-03T07:21:08Z</time>
      </trkpt>
      <trkpt lat="48.07881" lon="-3.50421">
        <ele>181.35</ele>
        <time>2012-06-03T07:21:19Z</time>
      </trkpt>
      <trkpt lat="48.07871" lon="-3.50386">
        <ele>177.98</ele>
        <time>2012-06-03T07:21:30Z</time>
      </trkpt>
      <trkpt lat="48.07867" lon="-3.50371">
        <ele>177.5</ele>
        <time>2012-06-03T07:21:42Z</time>
      </trkpt>
      <trkpt lat="48.07867" lon="-3.50371">
        <ele>177.5</ele>
        <time>2012-06-03T07:22:07Z</time>
      </trkpt>
      <trkpt lat="48.07871" lon="-3.50362">
        <ele>176.06</ele>
        <time>2012-06-03T07:22:11Z</time>
      </trkpt>
      <trkpt lat="48.07919" lon="-3.50329">
        <ele>171.73</ele>
        <time>2012-06-03T07:22:20Z</time>
      </trkpt>
      <trkpt lat="48.07934" lon="-3.50322">
        <ele>170.29</ele>
        <time>2012-06-03T07:22:22Z</time>
      </trkpt>
      <trkpt lat="48.07953" lon="-3.50279">
        <ele>167.89</ele>
        <time>2012-06-03T07:22:28Z</time>
      </trkpt>
      <trkpt lat="48.07931" lon="-3.50241">
        <ele>163.56</ele>
        <time>2012-06-03T07:22:33Z</time>
      </trkpt>
      <trkpt lat="48.07906" lon="-3.50228">
        <ele>161.16</ele>
        <time>2012-06-03T07:22:36Z</time>
      </trkpt>
      <trkpt lat="48.07867" lon="-3.50191">
        <ele>155.39</ele>
        <time>2012-06-03T07:22:42Z</time>
      </trkpt>
      <trkpt lat="48.07786" lon="-3.50076">
        <ele>147.22</ele>
        <time>2012-06-03T07:22:54Z</time>
      </trkpt>
      <trkpt lat="48.07772" lon="-3.50057">
        <ele>145.78</ele>
        <time>2012-06-03T07:22:57Z</time>
      </trkpt>
      <trkpt lat="48.07765" lon="-3.50045">
        <ele>144.34</ele>
        <time>2012-06-03T07:22:59Z</time>
      </trkpt>
      <trkpt lat="48.07732" lon="-3.49996">
        <ele>145.3</ele>
        <time>2012-06-03T07:23:10Z</time>
      </trkpt>
      <trkpt lat="48.07718" lon="-3.49974">
        <ele>146.26</ele>
        <time>2012-06-03T07:23:14Z</time>
      </trkpt>
      <trkpt lat="48.07705" lon="-3.49957">
        <ele>146.26</ele>
        <time>2012-06-03T07:23:17Z</time>
      </trkpt>
      <trkpt lat="48.07692" lon="-3.4994">
        <ele>146.26</ele>
        <time>2012-06-03T07:23:20Z</time>
      </trkpt>
      <trkpt lat="48.07656" lon="-3.49889">
        <ele>144.82</ele>
        <time>2012-06-03T07:23:27Z</time>
      </trkpt>
      <trkpt lat="48.07602" lon="-3.49809">
        <ele>139.53</ele>
        <time>2012-06-03T07:23:36Z</time>
      </trkpt>
      <trkpt lat="48.07576" lon="-3.49808">
        <ele>140.49</ele>
        <time>2012-06-03T07:23:43Z</time>
      </trkpt>
      <trkpt lat="48.0751" lon="-3.49908">
        <ele>144.34</ele>
        <time>2012-06-03T07:24:06Z</time>
      </trkpt>
      <trkpt lat="48.07507" lon="-3.49915">
        <ele>144.82</ele>
        <time>2012-06-03T07:24:08Z</time>
      </trkpt>
      <trkpt lat="48.07495" lon="-3.49908">
        <ele>142.89</ele>
        <time>2012-06-03T07:24:14Z</time>
      </trkpt>
      <trkpt lat="48.0749" lon="-3.499">
        <ele>142.41</ele>
        <time>2012-06-03T07:24:16Z</time>
      </trkpt>
      <trkpt lat="48.07441" lon="-3.49811">
        <ele>137.13</ele>
        <time>2012-06-03T07:24:27Z</time>
      </trkpt>
      <trkpt lat="48.07431" lon="-3.49792">
        <ele>135.68</ele>
        <time>2012-06-03T07:24:29Z</time>
      </trkpt>
      <trkpt lat="48.07396" lon="-3.49744">
        <ele>133.76</ele>
        <time>2012-06-03T07:24:36Z</time>
      </trkpt>
      <trkpt lat="48.07381" lon="-3.49731">
        <ele>133.76</ele>
        <time>2012-06-03T07:24:39Z</time>
      </trkpt>
      <trkpt lat="48.07355" lon="-3.49695">
        <ele>135.2</ele>
        <time>2012-06-03T07:24:48Z</time>
      </trkpt>
      <trkpt lat="48.07338" lon="-3.49668">
        <ele>140.01</ele>
        <time>2012-06-03T07:24:55Z</time>
      </trkpt>
      <trkpt lat="48.0732" lon="-3.49646">
        <ele>142.41</ele>
        <time>2012-06-03T07:25:01Z</time>
      </trkpt>
      <trkpt lat="48.07318" lon="-3.49632">
        <ele>143.85</ele>
        <time>2012-06-03T07:25:05Z</time>
      </trkpt>
      <trkpt lat="48.07332" lon="-3.49589">
        <ele>142.41</ele>
        <time>2012-06-03T07:25:15Z</time>
      </trkpt>
      <trkpt lat="48.07342" lon="-3.49553">
        <ele>143.85</ele>
        <time>2012-06-03T07:25:22Z</time>
      </trkpt>
      <trkpt lat="48.07377" lon="-3.49565">
        <ele>146.26</ele>
        <time>2012-06-03T07:25:33Z</time>
      </trkpt>
      <trkpt lat="48.07426" lon="-3.4958">
        <ele>142.89</ele>
        <time>2012-06-03T07:25:44Z</time>
      </trkpt>
      <trkpt lat="48.07447" lon="-3.49556">
        <ele>141.93</ele>
        <time>2012-06-03T07:25:51Z</time>
      </trkpt>
      <trkpt lat="48.07467" lon="-3.49505">
        <ele>143.85</ele>
        <time>2012-06-03T07:26:00Z</time>
      </trkpt>
      <trkpt lat="48.07488" lon="-3.49437">
        <ele>142.41</ele>
        <time>2012-06-03T07:26:10Z</time>
      </trkpt>
      <trkpt lat="48.07504" lon="-3.49417">
        <ele>144.34</ele>
        <time>2012-06-03T07:26:16Z</time>
      </trkpt>
      <trkpt lat="48.07514" lon="-3.49419">
        <ele>144.82</ele>
        <time>2012-06-03T07:26:19Z</time>
      </trkpt>
      <trkpt lat="48.0753" lon="-3.49416">
        <ele>142.89</ele>
        <time>2012-06-03T07:26:26Z</time>
      </trkpt>
      <trkpt lat="48.07556" lon="-3.49404">
        <ele>143.85</ele>
        <time>2012-06-03T07:26:36Z</time>
      </trkpt>
      <trkpt lat="48.07573" lon="-3.49396">
        <ele>144.34</ele>
        <time>2012-06-03T07:26:41Z</time>
      </trkpt>
      <trkpt lat="48.07582" lon="-3.4939">
        <ele>142.89</ele>
        <time>2012-06-03T07:26:44Z</time>
      </trkpt>
      <trkpt lat="48.07596" lon="-3.49384">
        <ele>144.34</ele>
        <time>2012-06-03T07:26:48Z</time>
      </trkpt>
      <trkpt lat="48.07608" lon="-3.4938">
        <ele>143.85</ele>
        <time>2012-06-03T07:27:02Z</time>
      </trkpt>
      <trkpt lat="48.0761" lon="-3.4938">
        <ele>143.85</ele>
        <time>2012-06-03T07:27:06Z</time>
      </trkpt>
      <trkpt lat="48.0765" lon="-3.49391">
        <ele>147.22</ele>
        <time>2012-06-03T07:27:16Z</time>
      </trkpt>
      <trkpt lat="48.0768" lon="-3.49409">
        <ele>147.22</ele>
        <time>2012-06-03T07:27:25Z</time>
      </trkpt>
      <trkpt lat="48.07684" lon="-3.49414">
        <ele>147.22</ele>
        <time>2012-06-03T07:27:29Z</time>
      </trkpt>
      <trkpt lat="48.07692" lon="-3.49418">
        <ele>146.26</ele>
        <time>2012-06-03T07:27:33Z</time>
      </trkpt>
      <trkpt lat="48.07711" lon="-3.49408">
        <ele>147.7</ele>
        <time>2012-06-03T07:27:39Z</time>
      </trkpt>
      <trkpt lat="48.07734" lon="-3.49404">
        <ele>146.26</ele>
        <time>2012-06-03T07:27:43Z</time>
      </trkpt>
      <trkpt lat="48.07749" lon="-3.49402">
        <ele>148.66</ele>
        <time>2012-06-03T07:27:46Z</time>
      </trkpt>
      <trkpt lat="48.07769" lon="-3.49388">
        <ele>151.06</ele>
        <time>2012-06-03T07:27:50Z</time>
      </trkpt>
      <trkpt lat="48.07795" lon="-3.49339">
        <ele>148.18</ele>
        <time>2012-06-03T07:28:01Z</time>
      </trkpt>
      <trkpt lat="48.07801" lon="-3.49326">
        <ele>148.66</ele>
        <time>2012-06-03T07:28:05Z</time>
      </trkpt>
      <trkpt lat="48.07821" lon="-3.49278">
        <ele>150.58</ele>
        <time>2012-06-03T07:28:13Z</time>
      </trkpt>
      <trkpt lat="48.0782" lon="-3.49263">
        <ele>149.62</ele>
        <time>2012-06-03T07:28:15Z</time>
      </trkpt>
      <trkpt lat="48.07812" lon="-3.49216">
        <ele>143.85</ele>
        <time>2012-06-03T07:28:24Z</time>
      </trkpt>
      <trkpt lat="48.07802" lon="-3.49191">
        <ele>140.01</ele>
        <time>2012-06-03T07:28:28Z</time>
      </trkpt>
      <trkpt lat="48.07786" lon="-3.4916">
        <ele>138.57</ele>
        <time>2012-06-03T07:28:35Z</time>
      </trkpt>
      <trkpt lat="48.07779" lon="-3.49156">
        <ele>136.16</ele>
        <time>2012-06-03T07:28:52Z</time>
      </trkpt>
      <trkpt lat="48.07775" lon="-3.49154">
        <ele>136.16</ele>
        <time>2012-06-03T07:29:16Z</time>
      </trkpt>
      <trkpt lat="48.07776" lon="-3.4915">
        <ele>136.16</ele>
        <time>2012-06-03T07:29:49Z</time>
      </trkpt>
      <trkpt lat="48.07774" lon="-3.49132">
        <ele>144.82</ele>
        <time>2012-06-03T07:32:26Z</time>
      </trkpt>
      <trkpt lat="48.07774" lon="-3.49131">
        <ele>144.82</ele>
        <time>2012-06-03T07:32:36Z</time>
      </trkpt>
      <trkpt lat="48.07766" lon="-3.49131">
        <ele>145.3</ele>
        <time>2012-06-03T07:32:40Z</time>
      </trkpt>
      <trkpt lat="48.07737" lon="-3.49096">
        <ele>142.41</ele>
        <time>2012-06-03T07:32:50Z</time>
      </trkpt>
      <trkpt lat="48.07693" lon="-3.49048">
        <ele>138.57</ele>
        <time>2012-06-03T07:33:02Z</time>
      </trkpt>
      <trkpt lat="48.07677" lon="-3.49037">
        <ele>135.2</ele>
        <time>2012-06-03T07:33:06Z</time>
      </trkpt>
      <trkpt lat="48.07627" lon="-3.4899">
        <ele>133.76</ele>
        <time>2012-06-03T07:33:17Z</time>
      </trkpt>
      <trkpt lat="48.07581" lon="-3.48953">
        <ele>135.2</ele>
        <time>2012-06-03T07:33:27Z</time>
      </trkpt>
      <trkpt lat="48.07553" lon="-3.48942">
        <ele>134.72</ele>
        <time>2012-06-03T07:33:32Z</time>
      </trkpt>
      <trkpt lat="48.07536" lon="-3.48936">
        <ele>134.72</ele>
        <time>2012-06-03T07:33:35Z</time>
      </trkpt>
      <trkpt lat="48.07485" lon="-3.48908">
        <ele>136.16</ele>
        <time>2012-06-03T07:33:46Z</time>
      </trkpt>
      <trkpt lat="48.07469" lon="-3.48893">
        <ele>132.8</ele>
        <time>2012-06-03T07:33:53Z</time>
      </trkpt>
      <trkpt lat="48.07466" lon="-3.48888">
        <ele>132.32</ele>
        <time>2012-06-03T07:33:55Z</time>
      </trkpt>
      <trkpt lat="48.0745" lon="-3.48878">
        <ele>130.88</ele>
        <time>2012-06-03T07:34:01Z</time>
      </trkpt>
      <trkpt lat="48.07436" lon="-3.48871">
        <ele>130.88</ele>
        <time>2012-06-03T07:34:06Z</time>
      </trkpt>
      <trkpt lat="48.07412" lon="-3.48862">
        <ele>130.88</ele>
        <time>2012-06-03T07:34:11Z</time>
      </trkpt>
      <trkpt lat="48.07392" lon="-3.48856">
        <ele>128.47</ele>
        <time>2012-06-03T07:34:17Z</time>
      </trkpt>
      <trkpt lat="48.07369" lon="-3.48851">
        <ele>128.95</ele>
        <time>2012-06-03T07:34:24Z</time>
      </trkpt>
      <trkpt lat="48.07359" lon="-3.48852">
        <ele>130.4</ele>
        <time>2012-06-03T07:34:27Z</time>
      </trkpt>
      <trkpt lat="48.07346" lon="-3.48849">
        <ele>130.88</ele>
        <time>2012-06-03T07:34:31Z</time>
      </trkpt>
      <trkpt lat="48.07315" lon="-3.48845">
        <ele>133.76</ele>
        <time>2012-06-03T07:34:39Z</time>
      </trkpt>
      <trkpt lat="48.07303" lon="-3.48849">
        <ele>133.76</ele>
        <time>2012-06-03T07:34:42Z</time>
      </trkpt>
      <trkpt lat="48.07286" lon="-3.48845">
        <ele>137.61</ele>
        <time>2012-06-03T07:34:47Z</time>
      </trkpt>
      <trkpt lat="48.07259" lon="-3.48835">
        <ele>137.61</ele>
        <time>2012-06-03T07:34:55Z</time>
      </trkpt>
      <trkpt lat="48.07251" lon="-3.48834">
        <ele>137.61</ele>
        <time>2012-06-03T07:34:57Z</time>
      </trkpt>
      <trkpt lat="48.0724" lon="-3.48864">
        <ele>132.32</ele>
        <time>2012-06-03T07:35:08Z</time>
      </trkpt>
      <trkpt lat="48.07239" lon="-3.48872">
        <ele>133.28</ele>
        <time>2012-06-03T07:35:10Z</time>
      </trkpt>
      <trkpt lat="48.07236" lon="-3.48883">
        <ele>132.32</ele>
        <time>2012-06-03T07:35:12Z</time>
      </trkpt>
      <trkpt lat="48.07227" lon="-3.48927">
        <ele>134.72</ele>
        <time>2012-06-03T07:35:20Z</time>
      </trkpt>
      <trkpt lat="48.07216" lon="-3.48934">
        <ele>134.24</ele>
        <time>2012-06-03T07:35:25Z</time>
      </trkpt>
      <trkpt lat="48.07191" lon="-3.4892">
        <ele>139.53</ele>
        <time>2012-06-03T07:35:36Z</time>
      </trkpt>
      <trkpt lat="48.07179" lon="-3.48915">
        <ele>144.82</ele>
        <time>2012-06-03T07:35:43Z</time>
      </trkpt>
      <trkpt lat="48.07163" lon="-3.48899">
        <ele>149.62</ele>
        <time>2012-06-03T07:35:52Z</time>
      </trkpt>
      <trkpt lat="48.07161" lon="-3.48896">
        <ele>151.06</ele>
        <time>2012-06-03T07:35:54Z</time>
      </trkpt>
      <trkpt lat="48.07145" lon="-3.48873">
        <ele>150.1</ele>
        <time>2012-06-03T07:36:02Z</time>
      </trkpt>
      <trkpt lat="48.07119" lon="-3.48869">
        <ele>151.06</ele>
        <time>2012-06-03T07:36:11Z</time>
      </trkpt>
      <trkpt lat="48.07045" lon="-3.48853">
        <ele>148.66</ele>
        <time>2012-06-03T07:36:30Z</time>
      </trkpt>
      <trkpt lat="48.06987" lon="-3.48834">
        <ele>151.06</ele>
        <time>2012-06-03T07:36:43Z</time>
      </trkpt>
      <trkpt lat="48.06953" lon="-3.48827">
        <ele>151.06</ele>
        <time>2012-06-03T07:36:52Z</time>
      </trkpt>
      <trkpt lat="48.06941" lon="-3.48827">
        <ele>151.06</ele>
        <time>2012-06-03T07:36:55Z</time>
      </trkpt>
      <trkpt lat="48.06926" lon="-3.48836">
        <ele>150.1</ele>
        <time>2012-06-03T07:36:59Z</time>
      </trkpt>
      <trkpt lat="48.06908" lon="-3.48878">
        <ele>146.74</ele>
        <time>2012-06-03T07:37:07Z</time>
      </trkpt>
      <trkpt lat="48.06889" lon="-3.48861">
        <ele>140.49</ele>
        <time>2012-06-03T07:37:13Z</time>
      </trkpt>
      <trkpt lat="48.06883" lon="-3.48857">
        <ele>140.01</ele>
        <time>2012-06-03T07:37:15Z</time>
      </trkpt>
      <trkpt lat="48.06854" lon="-3.48844">
        <ele>135.2</ele>
        <time>2012-06-03T07:37:22Z</time>
      </trkpt>
      <trkpt lat="48.06815" lon="-3.48818">
        <ele>132.8</ele>
        <time>2012-06-03T07:37:29Z</time>
      </trkpt>
      <trkpt lat="48.06803" lon="-3.48805">
        <ele>139.53</ele>
        <time>2012-06-03T07:37:32Z</time>
      </trkpt>
      <trkpt lat="48.06782" lon="-3.48807">
        <ele>140.97</ele>
        <time>2012-06-03T07:37:38Z</time>
      </trkpt>
      <trkpt lat="48.06779" lon="-3.48807">
        <ele>140.97</ele>
        <time>2012-06-03T07:37:39Z</time>
      </trkpt>
      <trkpt lat="48.06751" lon="-3.48766">
        <ele>148.18</ele>
        <time>2012-06-03T07:37:48Z</time>
      </trkpt>
      <trkpt lat="48.06737" lon="-3.48746">
        <ele>149.14</ele>
        <time>2012-06-03T07:37:52Z</time>
      </trkpt>
      <trkpt lat="48.06725" lon="-3.4874">
        <ele>147.22</ele>
        <time>2012-06-03T07:37:55Z</time>
      </trkpt>
      <trkpt lat="48.06696" lon="-3.4875">
        <ele>144.34</ele>
        <time>2012-06-03T07:38:00Z</time>
      </trkpt>
      <trkpt lat="48.06671" lon="-3.48723">
        <ele>142.41</ele>
        <time>2012-06-03T07:38:07Z</time>
      </trkpt>
      <trkpt lat="48.06647" lon="-3.48709">
        <ele>140.01</ele>
        <time>2012-06-03T07:38:12Z</time>
      </trkpt>
      <trkpt lat="48.06624" lon="-3.48713">
        <ele>138.57</ele>
        <time>2012-06-03T07:38:15Z</time>
      </trkpt>
      <trkpt lat="48.06581" lon="-3.48736">
        <ele>136.16</ele>
        <time>2012-06-03T07:38:20Z</time>
      </trkpt>
      <trkpt lat="48.06559" lon="-3.48764">
        <ele>136.16</ele>
        <time>2012-06-03T07:38:24Z</time>
      </trkpt>
      <trkpt lat="48.06544" lon="-3.48752">
        <ele>135.2</ele>
        <time>2012-06-03T07:38:29Z</time>
      </trkpt>
      <trkpt lat="48.06524" lon="-3.48726">
        <ele>135.2</ele>
        <time>2012-06-03T07:38:33Z</time>
      </trkpt>
      <trkpt lat="48.06501" lon="-3.48691">
        <ele>136.16</ele>
        <time>2012-06-03T07:38:38Z</time>
      </trkpt>
      <trkpt lat="48.06476" lon="-3.48627">
        <ele>139.05</ele>
        <time>2012-06-03T07:38:47Z</time>
      </trkpt>
      <trkpt lat="48.06466" lon="-3.48606">
        <ele>140.97</ele>
        <time>2012-06-03T07:38:50Z</time>
      </trkpt>
      <trkpt lat="48.06411" lon="-3.48561">
        <ele>144.82</ele>
        <time>2012-06-03T07:39:00Z</time>
      </trkpt>
      <trkpt lat="48.06405" lon="-3.48557">
        <ele>145.3</ele>
        <time>2012-06-03T07:39:01Z</time>
      </trkpt>
      <trkpt lat="48.06359" lon="-3.48529">
        <ele>148.18</ele>
        <time>2012-06-03T07:39:11Z</time>
      </trkpt>
      <trkpt lat="48.06307" lon="-3.48496">
        <ele>149.14</ele>
        <time>2012-06-03T07:39:23Z</time>
      </trkpt>
      <trkpt lat="48.06275" lon="-3.48475">
        <ele>151.06</ele>
        <time>2012-06-03T07:39:30Z</time>
      </trkpt>
      <trkpt lat="48.06245" lon="-3.48451">
        <ele>152.51</ele>
        <time>2012-06-03T07:39:39Z</time>
      </trkpt>
      <trkpt lat="48.06226" lon="-3.48446">
        <ele>153.47</ele>
        <time>2012-06-03T07:39:48Z</time>
      </trkpt>
      <trkpt lat="48.06213" lon="-3.48437">
        <ele>154.91</ele>
        <time>2012-06-03T07:39:52Z</time>
      </trkpt>
      <trkpt lat="48.06188" lon="-3.48431">
        <ele>154.91</ele>
        <time>2012-06-03T07:39:56Z</time>
      </trkpt>
      <trkpt lat="48.06153" lon="-3.48412">
        <ele>158.75</ele>
        <time>2012-06-03T07:40:03Z</time>
      </trkpt>
      <trkpt lat="48.06087" lon="-3.48383">
        <ele>160.2</ele>
        <time>2012-06-03T07:40:20Z</time>
      </trkpt>
      <trkpt lat="48.0604" lon="-3.48349">
        <ele>163.08</ele>
        <time>2012-06-03T07:40:36Z</time>
      </trkpt>
      <trkpt lat="48.06" lon="-3.48337">
        <ele>166.93</ele>
        <time>2012-06-03T07:40:47Z</time>
      </trkpt>
      <trkpt lat="48.05987" lon="-3.48336">
        <ele>165.96</ele>
        <time>2012-06-03T07:40:50Z</time>
      </trkpt>
      <trkpt lat="48.05948" lon="-3.48325">
        <ele>164.04</ele>
        <time>2012-06-03T07:41:00Z</time>
      </trkpt>
      <trkpt lat="48.05935" lon="-3.48309">
        <ele>163.56</ele>
        <time>2012-06-03T07:41:04Z</time>
      </trkpt>
      <trkpt lat="48.05912" lon="-3.48259">
        <ele>162.6</ele>
        <time>2012-06-03T07:41:15Z</time>
      </trkpt>
      <trkpt lat="48.05913" lon="-3.48262">
        <ele>163.08</ele>
        <time>2012-06-03T07:41:22Z</time>
      </trkpt>
      <trkpt lat="48.05918" lon="-3.48253">
        <ele>163.56</ele>
        <time>2012-06-03T07:41:27Z</time>
      </trkpt>
      <trkpt lat="48.05943" lon="-3.48238">
        <ele>163.08</ele>
        <time>2012-06-03T07:41:33Z</time>
      </trkpt>
      <trkpt lat="48.05967" lon="-3.48223">
        <ele>162.6</ele>
        <time>2012-06-03T07:41:37Z</time>
      </trkpt>
      <trkpt lat="48.06006" lon="-3.48202">
        <ele>161.64</ele>
        <time>2012-06-03T07:41:43Z</time>
      </trkpt>
      <trkpt lat="48.06016" lon="-3.48154">
        <ele>159.72</ele>
        <time>2012-06-03T07:41:49Z</time>
      </trkpt>
      <trkpt lat="48.06011" lon="-3.48136">
        <ele>159.24</ele>
        <time>2012-06-03T07:41:51Z</time>
      </trkpt>
      <trkpt lat="48.05996" lon="-3.48123">
        <ele>158.27</ele>
        <time>2012-06-03T07:41:58Z</time>
      </trkpt>
      <trkpt lat="48.05996" lon="-3.48123">
        <ele>158.27</ele>
        <time>2012-06-03T07:42:01Z</time>
      </trkpt>
      <trkpt lat="48.05994" lon="-3.48111">
        <ele>158.27</ele>
        <time>2012-06-03T07:42:05Z</time>
      </trkpt>
      <trkpt lat="48.05992" lon="-3.48097">
        <ele>157.79</ele>
        <time>2012-06-03T07:42:08Z</time>
      </trkpt>
      <trkpt lat="48.05988" lon="-3.4808">
        <ele>158.75</ele>
        <time>2012-06-03T07:42:12Z</time>
      </trkpt>
      <trkpt lat="48.05955" lon="-3.48009">
        <ele>159.24</ele>
        <time>2012-06-03T07:42:26Z</time>
      </trkpt>
      <trkpt lat="48.05948" lon="-3.47994">
        <ele>159.72</ele>
        <time>2012-06-03T07:42:29Z</time>
      </trkpt>
      <trkpt lat="48.05939" lon="-3.47968">
        <ele>159.24</ele>
        <time>2012-06-03T07:42:33Z</time>
      </trkpt>
      <trkpt lat="48.05929" lon="-3.47928">
        <ele>158.27</ele>
        <time>2012-06-03T07:42:39Z</time>
      </trkpt>
      <trkpt lat="48.05926" lon="-3.47913">
        <ele>157.79</ele>
        <time>2012-06-03T07:42:43Z</time>
      </trkpt>
      <trkpt lat="48.05907" lon="-3.47912">
        <ele>160.2</ele>
        <time>2012-06-03T07:42:52Z</time>
      </trkpt>
      <trkpt lat="48.05876" lon="-3.47906">
        <ele>162.12</ele>
        <time>2012-06-03T07:43:00Z</time>
      </trkpt>
      <trkpt lat="48.05843" lon="-3.47872">
        <ele>164.04</ele>
        <time>2012-06-03T07:43:09Z</time>
      </trkpt>
      <trkpt lat="48.05831" lon="-3.47864">
        <ele>166.93</ele>
        <time>2012-06-03T07:43:14Z</time>
      </trkpt>
      <trkpt lat="48.05823" lon="-3.47848">
        <ele>166.93</ele>
        <time>2012-06-03T07:43:19Z</time>
      </trkpt>
      <trkpt lat="48.05824" lon="-3.47835">
        <ele>164.52</ele>
        <time>2012-06-03T07:43:21Z</time>
      </trkpt>
      <trkpt lat="48.05834" lon="-3.47785">
        <ele>163.56</ele>
        <time>2012-06-03T07:43:29Z</time>
      </trkpt>
      <trkpt lat="48.05836" lon="-3.47781">
        <ele>164.52</ele>
        <time>2012-06-03T07:43:30Z</time>
      </trkpt>
      <trkpt lat="48.05844" lon="-3.47765">
        <ele>165.96</ele>
        <time>2012-06-03T07:43:33Z</time>
      </trkpt>
      <trkpt lat="48.05852" lon="-3.47718">
        <ele>168.85</ele>
        <time>2012-06-03T07:43:41Z</time>
      </trkpt>
      <trkpt lat="48.05869" lon="-3.47695">
        <ele>158.27</ele>
        <time>2012-06-03T07:43:48Z</time>
      </trkpt>
      <trkpt lat="48.0588" lon="-3.47685">
        <ele>156.35</ele>
        <time>2012-06-03T07:43:50Z</time>
      </trkpt>
      <trkpt lat="48.05898" lon="-3.4766">
        <ele>151.54</ele>
        <time>2012-06-03T07:43:55Z</time>
      </trkpt>
      <trkpt lat="48.05926" lon="-3.47593">
        <ele>156.35</ele>
        <time>2012-06-03T07:44:03Z</time>
      </trkpt>
      <trkpt lat="48.05944" lon="-3.4756">
        <ele>156.35</ele>
        <time>2012-06-03T07:44:08Z</time>
      </trkpt>
      <trkpt lat="48.05932" lon="-3.47545">
        <ele>153.47</ele>
        <time>2012-06-03T07:44:14Z</time>
      </trkpt>
      <trkpt lat="48.05909" lon="-3.47531">
        <ele>145.78</ele>
        <time>2012-06-03T07:44:20Z</time>
      </trkpt>
      <trkpt lat="48.05905" lon="-3.47499">
        <ele>137.61</ele>
        <time>2012-06-03T07:44:27Z</time>
      </trkpt>
      <trkpt lat="48.05887" lon="-3.47487">
        <ele>135.68</ele>
        <time>2012-06-03T07:44:33Z</time>
      </trkpt>
      <trkpt lat="48.05874" lon="-3.47476">
        <ele>135.68</ele>
        <time>2012-06-03T07:44:36Z</time>
      </trkpt>
      <trkpt lat="48.05836" lon="-3.47445">
        <ele>137.61</ele>
        <time>2012-06-03T07:44:47Z</time>
      </trkpt>
      <trkpt lat="48.05808" lon="-3.47432">
        <ele>134.72</ele>
        <time>2012-06-03T07:44:54Z</time>
      </trkpt>
      <trkpt lat="48.05786" lon="-3.47425">
        <ele>132.32</ele>
        <time>2012-06-03T07:44:58Z</time>
      </trkpt>
      <trkpt lat="48.05756" lon="-3.47428">
        <ele>131.84</ele>
        <time>2012-06-03T07:45:05Z</time>
      </trkpt>
      <trkpt lat="48.05748" lon="-3.47463">
        <ele>132.32</ele>
        <time>2012-06-03T07:45:14Z</time>
      </trkpt>
      <trkpt lat="48.05747" lon="-3.47472">
        <ele>132.32</ele>
        <time>2012-06-03T07:45:17Z</time>
      </trkpt>
      <trkpt lat="48.05755" lon="-3.4748">
        <ele>131.84</ele>
        <time>2012-06-03T07:45:22Z</time>
      </trkpt>
      <trkpt lat="48.05769" lon="-3.47491">
        <ele>136.16</ele>
        <time>2012-06-03T07:45:32Z</time>
      </trkpt>
      <trkpt lat="48.0577" lon="-3.47504">
        <ele>135.68</ele>
        <time>2012-06-03T07:45:37Z</time>
      </trkpt>
      <trkpt lat="48.0576" lon="-3.47512">
        <ele>135.68</ele>
        <time>2012-06-03T07:45:43Z</time>
      </trkpt>
      <trkpt lat="48.05738" lon="-3.47539">
        <ele>139.53</ele>
        <time>2012-06-03T07:45:57Z</time>
      </trkpt>
      <trkpt lat="48.05717" lon="-3.47549">
        <ele>140.97</ele>
        <time>2012-06-03T07:46:06Z</time>
      </trkpt>
      <trkpt lat="48.05706" lon="-3.47549">
        <ele>141.45</ele>
        <time>2012-06-03T07:46:10Z</time>
      </trkpt>
      <trkpt lat="48.05693" lon="-3.47548">
        <ele>142.89</ele>
        <time>2012-06-03T07:46:15Z</time>
      </trkpt>
      <trkpt lat="48.0566" lon="-3.47557">
        <ele>143.37</ele>
        <time>2012-06-03T07:46:26Z</time>
      </trkpt>
      <trkpt lat="48.05636" lon="-3.47567">
        <ele>144.82</ele>
        <time>2012-06-03T07:46:36Z</time>
      </trkpt>
      <trkpt lat="48.05626" lon="-3.47575">
        <ele>146.26</ele>
        <time>2012-06-03T07:46:41Z</time>
      </trkpt>
      <trkpt lat="48.05606" lon="-3.47585">
        <ele>150.1</ele>
        <time>2012-06-03T07:46:50Z</time>
      </trkpt>
      <trkpt lat="48.05586" lon="-3.47611">
        <ele>150.1</ele>
        <time>2012-06-03T07:47:01Z</time>
      </trkpt>
      <trkpt lat="48.0558" lon="-3.47653">
        <ele>145.78</ele>
        <time>2012-06-03T07:47:12Z</time>
      </trkpt>
      <trkpt lat="48.05561" lon="-3.47712">
        <ele>149.62</ele>
        <time>2012-06-03T07:47:26Z</time>
      </trkpt>
      <trkpt lat="48.05542" lon="-3.47767">
        <ele>159.72</ele>
        <time>2012-06-03T07:47:39Z</time>
      </trkpt>
      <trkpt lat="48.0554" lon="-3.47772">
        <ele>159.72</ele>
        <time>2012-06-03T07:47:40Z</time>
      </trkpt>
      <trkpt lat="48.05529" lon="-3.47792">
        <ele>157.31</ele>
        <time>2012-06-03T07:47:44Z</time>
      </trkpt>
      <trkpt lat="48.05511" lon="-3.47808">
        <ele>152.99</ele>
        <time>2012-06-03T07:47:49Z</time>
      </trkpt>
      <trkpt lat="48.05491" lon="-3.47827">
        <ele>147.22</ele>
        <time>2012-06-03T07:47:58Z</time>
      </trkpt>
      <trkpt lat="48.05488" lon="-3.47832">
        <ele>145.78</ele>
        <time>2012-06-03T07:48:23Z</time>
      </trkpt>
      <trkpt lat="48.05485" lon="-3.47836">
        <ele>145.78</ele>
        <time>2012-06-03T07:48:56Z</time>
      </trkpt>
      <trkpt lat="48.05486" lon="-3.47838">
        <ele>145.78</ele>
        <time>2012-06-03T07:49:24Z</time>
      </trkpt>
      <trkpt lat="48.05485" lon="-3.4784">
        <ele>145.3</ele>
        <time>2012-06-03T07:49:29Z</time>
      </trkpt>
      <trkpt lat="48.05477" lon="-3.4785">
        <ele>145.3</ele>
        <time>2012-06-03T07:49:35Z</time>
      </trkpt>
      <trkpt lat="48.05472" lon="-3.47856">
        <ele>146.26</ele>
        <time>2012-06-03T07:49:38Z</time>
      </trkpt>
      <trkpt lat="48.05466" lon="-3.47856">
        <ele>147.7</ele>
        <time>2012-06-03T07:49:41Z</time>
      </trkpt>
      <trkpt lat="48.05456" lon="-3.47851">
        <ele>150.1</ele>
        <time>2012-06-03T07:49:47Z</time>
      </trkpt>
      <trkpt lat="48.05428" lon="-3.4786">
        <ele>153.95</ele>
        <time>2012-06-03T07:50:00Z</time>
      </trkpt>
      <trkpt lat="48.05387" lon="-3.47857">
        <ele>153.95</ele>
        <time>2012-06-03T07:50:12Z</time>
      </trkpt>
      <trkpt lat="48.0534" lon="-3.47847">
        <ele>154.43</ele>
        <time>2012-06-03T07:50:22Z</time>
      </trkpt>
      <trkpt lat="48.05323" lon="-3.47846">
        <ele>154.43</ele>
        <time>2012-06-03T07:50:28Z</time>
      </trkpt>
      <trkpt lat="48.05319" lon="-3.47854">
        <ele>154.43</ele>
        <time>2012-06-03T07:50:37Z</time>
      </trkpt>
      <trkpt lat="48.05313" lon="-3.47856">
        <ele>153.95</ele>
        <time>2012-06-03T07:50:42Z</time>
      </trkpt>
      <trkpt lat="48.05311" lon="-3.47863">
        <ele>154.43</ele>
        <time>2012-06-03T07:50:50Z</time>
      </trkpt>
      <trkpt lat="48.05293" lon="-3.47887">
        <ele>154.91</ele>
        <time>2012-06-03T07:51:02Z</time>
      </trkpt>
      <trkpt lat="48.05289" lon="-3.4789">
        <ele>155.39</ele>
        <time>2012-06-03T07:51:04Z</time>
      </trkpt>
      <trkpt lat="48.05276" lon="-3.4788">
        <ele>157.31</ele>
        <time>2012-06-03T07:51:11Z</time>
      </trkpt>
      <trkpt lat="48.05256" lon="-3.47864">
        <ele>160.2</ele>
        <time>2012-06-03T07:51:22Z</time>
      </trkpt>
      <trkpt lat="48.05232" lon="-3.4785">
        <ele>165</ele>
        <time>2012-06-03T07:51:32Z</time>
      </trkpt>
      <trkpt lat="48.05226" lon="-3.47846">
        <ele>165.48</ele>
        <time>2012-06-03T07:51:34Z</time>
      </trkpt>
      <trkpt lat="48.05182" lon="-3.47843">
        <ele>168.37</ele>
        <time>2012-06-03T07:51:46Z</time>
      </trkpt>
      <trkpt lat="48.05169" lon="-3.47897">
        <ele>168.85</ele>
        <time>2012-06-03T07:51:57Z</time>
      </trkpt>
      <trkpt lat="48.05165" lon="-3.47914">
        <ele>168.37</ele>
        <time>2012-06-03T07:52:00Z</time>
      </trkpt>
      <trkpt lat="48.05157" lon="-3.47966">
        <ele>168.37</ele>
        <time>2012-06-03T07:52:09Z</time>
      </trkpt>
      <trkpt lat="48.05151" lon="-3.47993">
        <ele>163.56</ele>
        <time>2012-06-03T07:52:14Z</time>
      </trkpt>
      <trkpt lat="48.05132" lon="-3.48088">
        <ele>157.31</ele>
        <time>2012-06-03T07:52:27Z</time>
      </trkpt>
      <trkpt lat="48.05129" lon="-3.4809">
        <ele>156.35</ele>
        <time>2012-06-03T07:52:37Z</time>
      </trkpt>
      <trkpt lat="48.05129" lon="-3.48091">
        <ele>157.31</ele>
        <time>2012-06-03T07:59:59Z</time>
      </trkpt>
      <trkpt lat="48.05107" lon="-3.48083">
        <ele>159.72</ele>
        <time>2012-06-03T08:00:10Z</time>
      </trkpt>
      <trkpt lat="48.05096" lon="-3.48084">
        <ele>157.79</ele>
        <time>2012-06-03T08:00:13Z</time>
      </trkpt>
      <trkpt lat="48.05065" lon="-3.48082">
        <ele>157.31</ele>
        <time>2012-06-03T08:00:24Z</time>
      </trkpt>
      <trkpt lat="48.05063" lon="-3.48082">
        <ele>157.31</ele>
        <time>2012-06-03T08:00:27Z</time>
      </trkpt>
      <trkpt lat="48.05053" lon="-3.48078">
        <ele>155.39</ele>
        <time>2012-06-03T08:00:33Z</time>
      </trkpt>
      <trkpt lat="48.05049" lon="-3.48076">
        <ele>153.95</ele>
        <time>2012-06-03T08:00:35Z</time>
      </trkpt>
      <trkpt lat="48.05041" lon="-3.48076">
        <ele>151.06</ele>
        <time>2012-06-03T08:00:39Z</time>
      </trkpt>
      <trkpt lat="48.05006" lon="-3.48089">
        <ele>148.66</ele>
        <time>2012-06-03T08:00:49Z</time>
      </trkpt>
      <trkpt lat="48.04947" lon="-3.48097">
        <ele>142.41</ele>
        <time>2012-06-03T08:00:58Z</time>
      </trkpt>
      <trkpt lat="48.04913" lon="-3.48094">
        <ele>137.61</ele>
        <time>2012-06-03T08:01:03Z</time>
      </trkpt>
      <trkpt lat="48.04865" lon="-3.48086">
        <ele>130.88</ele>
        <time>2012-06-03T08:01:10Z</time>
      </trkpt>
      <trkpt lat="48.0484" lon="-3.48071">
        <ele>127.03</ele>
        <time>2012-06-03T08:01:14Z</time>
      </trkpt>
      <trkpt lat="48.0483" lon="-3.48061">
        <ele>124.15</ele>
        <time>2012-06-03T08:01:18Z</time>
      </trkpt>
      <trkpt lat="48.04833" lon="-3.48065">
        <ele>122.71</ele>
        <time>2012-06-03T08:01:29Z</time>
      </trkpt>
      <trkpt lat="48.04842" lon="-3.4803">
        <ele>118.86</ele>
        <time>2012-06-03T08:01:40Z</time>
      </trkpt>
      <trkpt lat="48.0483" lon="-3.48023">
        <ele>116.46</ele>
        <time>2012-06-03T08:01:44Z</time>
      </trkpt>
      <trkpt lat="48.04805" lon="-3.4803">
        <ele>114.05</ele>
        <time>2012-06-03T08:01:51Z</time>
      </trkpt>
      <trkpt lat="48.04799" lon="-3.48028">
        <ele>113.57</ele>
        <time>2012-06-03T08:02:01Z</time>
      </trkpt>
      <trkpt lat="48.04795" lon="-3.48024">
        <ele>114.05</ele>
        <time>2012-06-03T08:02:14Z</time>
      </trkpt>
      <trkpt lat="48.04783" lon="-3.48021">
        <ele>113.09</ele>
        <time>2012-06-03T08:02:25Z</time>
      </trkpt>
      <trkpt lat="48.04776" lon="-3.48017">
        <ele>111.65</ele>
        <time>2012-06-03T08:02:38Z</time>
      </trkpt>
      <trkpt lat="48.04762" lon="-3.48012">
        <ele>111.17</ele>
        <time>2012-06-03T08:02:47Z</time>
      </trkpt>
      <trkpt lat="48.04744" lon="-3.48011">
        <ele>107.32</ele>
        <time>2012-06-03T08:02:53Z</time>
      </trkpt>
      <trkpt lat="48.04717" lon="-3.48014">
        <ele>102.52</ele>
        <time>2012-06-03T08:03:03Z</time>
      </trkpt>
      <trkpt lat="48.04714" lon="-3.48014">
        <ele>101.56</ele>
        <time>2012-06-03T08:03:04Z</time>
      </trkpt>
      <trkpt lat="48.04708" lon="-3.48013">
        <ele>100.11</ele>
        <time>2012-06-03T08:03:08Z</time>
      </trkpt>
      <trkpt lat="48.04702" lon="-3.48013">
        <ele>98.67</ele>
        <time>2012-06-03T08:03:12Z</time>
      </trkpt>
      <trkpt lat="48.04673" lon="-3.48026">
        <ele>94.83</ele>
        <time>2012-06-03T08:03:22Z</time>
      </trkpt>
      <trkpt lat="48.04657" lon="-3.4803">
        <ele>94.83</ele>
        <time>2012-06-03T08:03:28Z</time>
      </trkpt>
      <trkpt lat="48.04651" lon="-3.48031">
        <ele>95.79</ele>
        <time>2012-06-03T08:03:41Z</time>
      </trkpt>
      <trkpt lat="48.04646" lon="-3.48025">
        <ele>96.75</ele>
        <time>2012-06-03T08:03:53Z</time>
      </trkpt>
      <trkpt lat="48.04624" lon="-3.4803">
        <ele>94.35</ele>
        <time>2012-06-03T08:04:04Z</time>
      </trkpt>
      <trkpt lat="48.04612" lon="-3.48029">
        <ele>93.87</ele>
        <time>2012-06-03T08:04:09Z</time>
      </trkpt>
      <trkpt lat="48.04597" lon="-3.48022">
        <ele>93.87</ele>
        <time>2012-06-03T08:04:19Z</time>
      </trkpt>
      <trkpt lat="48.04574" lon="-3.47998">
        <ele>96.75</ele>
        <time>2012-06-03T08:04:30Z</time>
      </trkpt>
      <trkpt lat="48.04572" lon="-3.47996">
        <ele>96.75</ele>
        <time>2012-06-03T08:04:31Z</time>
      </trkpt>
      <trkpt lat="48.04563" lon="-3.48008">
        <ele>100.11</ele>
        <time>2012-06-03T08:04:37Z</time>
      </trkpt>
      <trkpt lat="48.04537" lon="-3.48007">
        <ele>102.04</ele>
        <time>2012-06-03T08:04:50Z</time>
      </trkpt>
      <trkpt lat="48.04533" lon="-3.48007">
        <ele>103</ele>
        <time>2012-06-03T08:04:52Z</time>
      </trkpt>
      <trkpt lat="48.04522" lon="-3.48012">
        <ele>104.92</ele>
        <time>2012-06-03T08:04:58Z</time>
      </trkpt>
      <trkpt lat="48.04497" lon="-3.48012">
        <ele>109.73</ele>
        <time>2012-06-03T08:05:10Z</time>
      </trkpt>
      <trkpt lat="48.04477" lon="-3.48001">
        <ele>114.53</ele>
        <time>2012-06-03T08:05:22Z</time>
      </trkpt>
      <trkpt lat="48.04468" lon="-3.47994">
        <ele>119.34</ele>
        <time>2012-06-03T08:05:31Z</time>
      </trkpt>
      <trkpt lat="48.0447" lon="-3.47999">
        <ele>120.78</ele>
        <time>2012-06-03T08:05:57Z</time>
      </trkpt>
      <trkpt lat="48.04473" lon="-3.48005">
        <ele>120.78</ele>
        <time>2012-06-03T08:06:01Z</time>
      </trkpt>
      <trkpt lat="48.04489" lon="-3.48034">
        <ele>119.82</ele>
        <time>2012-06-03T08:06:12Z</time>
      </trkpt>
      <trkpt lat="48.04506" lon="-3.48062">
        <ele>116.94</ele>
        <time>2012-06-03T08:06:24Z</time>
      </trkpt>
      <trkpt lat="48.04526" lon="-3.48088">
        <ele>113.09</ele>
        <time>2012-06-03T08:06:36Z</time>
      </trkpt>
      <trkpt lat="48.04547" lon="-3.48117">
        <ele>112.61</ele>
        <time>2012-06-03T08:06:48Z</time>
      </trkpt>
      <trkpt lat="48.04562" lon="-3.48133">
        <ele>111.65</ele>
        <time>2012-06-03T08:06:59Z</time>
      </trkpt>
      <trkpt lat="48.04583" lon="-3.48151">
        <ele>109.73</ele>
        <time>2012-06-03T08:07:12Z</time>
      </trkpt>
      <trkpt lat="48.04596" lon="-3.48161">
        <ele>112.13</ele>
        <time>2012-06-03T08:07:21Z</time>
      </trkpt>
      <trkpt lat="48.04603" lon="-3.48166">
        <ele>112.61</ele>
        <time>2012-06-03T08:07:26Z</time>
      </trkpt>
      <trkpt lat="48.04618" lon="-3.48181">
        <ele>113.09</ele>
        <time>2012-06-03T08:07:39Z</time>
      </trkpt>
      <trkpt lat="48.04619" lon="-3.48182">
        <ele>113.09</ele>
        <time>2012-06-03T08:07:40Z</time>
      </trkpt>
      <trkpt lat="48.04623" lon="-3.48185">
        <ele>114.05</ele>
        <time>2012-06-03T08:07:43Z</time>
      </trkpt>
      <trkpt lat="48.04626" lon="-3.48187">
        <ele>115.98</ele>
        <time>2012-06-03T08:07:46Z</time>
      </trkpt>
      <trkpt lat="48.04637" lon="-3.48203">
        <ele>123.19</ele>
        <time>2012-06-03T08:07:54Z</time>
      </trkpt>
      <trkpt lat="48.04662" lon="-3.48231">
        <ele>131.84</ele>
        <time>2012-06-03T08:08:10Z</time>
      </trkpt>
      <trkpt lat="48.04687" lon="-3.48266">
        <ele>138.57</ele>
        <time>2012-06-03T08:08:23Z</time>
      </trkpt>
      <trkpt lat="48.04702" lon="-3.48289">
        <ele>145.3</ele>
        <time>2012-06-03T08:08:35Z</time>
      </trkpt>
      <trkpt lat="48.04715" lon="-3.48314">
        <ele>152.51</ele>
        <time>2012-06-03T08:08:48Z</time>
      </trkpt>
      <trkpt lat="48.04734" lon="-3.48347">
        <ele>152.51</ele>
        <time>2012-06-03T08:09:01Z</time>
      </trkpt>
      <trkpt lat="48.04745" lon="-3.48364">
        <ele>152.99</ele>
        <time>2012-06-03T08:09:08Z</time>
      </trkpt>
      <trkpt lat="48.04753" lon="-3.48377">
        <ele>150.58</ele>
        <time>2012-06-03T08:09:13Z</time>
      </trkpt>
      <trkpt lat="48.04758" lon="-3.48386">
        <ele>149.62</ele>
        <time>2012-06-03T08:09:17Z</time>
      </trkpt>
      <trkpt lat="48.04745" lon="-3.48372">
        <ele>154.43</ele>
        <time>2012-06-03T08:09:29Z</time>
      </trkpt>
      <trkpt lat="48.04729" lon="-3.48364">
        <ele>161.64</ele>
        <time>2012-06-03T08:09:40Z</time>
      </trkpt>
      <trkpt lat="48.04709" lon="-3.48349">
        <ele>168.37</ele>
        <time>2012-06-03T08:09:52Z</time>
      </trkpt>
      <trkpt lat="48.04678" lon="-3.48331">
        <ele>170.77</ele>
        <time>2012-06-03T08:10:05Z</time>
      </trkpt>
      <trkpt lat="48.04647" lon="-3.48311">
        <ele>173.66</ele>
        <time>2012-06-03T08:10:16Z</time>
      </trkpt>
      <trkpt lat="48.04644" lon="-3.48309">
        <ele>173.66</ele>
        <time>2012-06-03T08:10:17Z</time>
      </trkpt>
      <trkpt lat="48.04634" lon="-3.48301">
        <ele>174.14</ele>
        <time>2012-06-03T08:10:21Z</time>
      </trkpt>
      <trkpt lat="48.04611" lon="-3.48285">
        <ele>173.66</ele>
        <time>2012-06-03T08:10:33Z</time>
      </trkpt>
      <trkpt lat="48.04603" lon="-3.48277">
        <ele>174.62</ele>
        <time>2012-06-03T08:10:38Z</time>
      </trkpt>
      <trkpt lat="48.04561" lon="-3.48261">
        <ele>172.21</ele>
        <time>2012-06-03T08:10:51Z</time>
      </trkpt>
      <trkpt lat="48.04531" lon="-3.4826">
        <ele>170.77</ele>
        <time>2012-06-03T08:11:01Z</time>
      </trkpt>
      <trkpt lat="48.04521" lon="-3.48259">
        <ele>173.66</ele>
        <time>2012-06-03T08:11:07Z</time>
      </trkpt>
      <trkpt lat="48.04515" lon="-3.48262">
        <ele>176.54</ele>
        <time>2012-06-03T08:11:11Z</time>
      </trkpt>
      <trkpt lat="48.04496" lon="-3.48263">
        <ele>182.79</ele>
        <time>2012-06-03T08:11:23Z</time>
      </trkpt>
      <trkpt lat="48.04472" lon="-3.48258">
        <ele>182.79</ele>
        <time>2012-06-03T08:11:37Z</time>
      </trkpt>
      <trkpt lat="48.04453" lon="-3.48247">
        <ele>184.23</ele>
        <time>2012-06-03T08:11:50Z</time>
      </trkpt>
      <trkpt lat="48.0443" lon="-3.48253">
        <ele>180.87</ele>
        <time>2012-06-03T08:12:01Z</time>
      </trkpt>
      <trkpt lat="48.04421" lon="-3.48259">
        <ele>177.98</ele>
        <time>2012-06-03T08:12:07Z</time>
      </trkpt>
      <trkpt lat="48.04398" lon="-3.48231">
        <ele>179.9</ele>
        <time>2012-06-03T08:12:21Z</time>
      </trkpt>
      <trkpt lat="48.04372" lon="-3.48189">
        <ele>181.35</ele>
        <time>2012-06-03T08:12:33Z</time>
      </trkpt>
      <trkpt lat="48.04344" lon="-3.4816">
        <ele>182.31</ele>
        <time>2012-06-03T08:12:45Z</time>
      </trkpt>
      <trkpt lat="48.04303" lon="-3.48118">
        <ele>184.71</ele>
        <time>2012-06-03T08:13:01Z</time>
      </trkpt>
      <trkpt lat="48.04257" lon="-3.48077">
        <ele>183.27</ele>
        <time>2012-06-03T08:13:15Z</time>
      </trkpt>
      <trkpt lat="48.04251" lon="-3.48069">
        <ele>183.75</ele>
        <time>2012-06-03T08:13:17Z</time>
      </trkpt>
      <trkpt lat="48.04236" lon="-3.48055">
        <ele>183.27</ele>
        <time>2012-06-03T08:13:21Z</time>
      </trkpt>
      <trkpt lat="48.04222" lon="-3.48046">
        <ele>182.31</ele>
        <time>2012-06-03T08:13:25Z</time>
      </trkpt>
      <trkpt lat="48.04164" lon="-3.48059">
        <ele>179.42</ele>
        <time>2012-06-03T08:13:35Z</time>
      </trkpt>
      <trkpt lat="48.04161" lon="-3.48063">
        <ele>178.94</ele>
        <time>2012-06-03T08:13:36Z</time>
      </trkpt>
      <trkpt lat="48.04114" lon="-3.48155">
        <ele>178.94</ele>
        <time>2012-06-03T08:13:53Z</time>
      </trkpt>
      <trkpt lat="48.04099" lon="-3.48176">
        <ele>177.5</ele>
        <time>2012-06-03T08:13:57Z</time>
      </trkpt>
      <trkpt lat="48.04089" lon="-3.48195">
        <ele>176.06</ele>
        <time>2012-06-03T08:14:00Z</time>
      </trkpt>
      <trkpt lat="48.04085" lon="-3.4823">
        <ele>176.06</ele>
        <time>2012-06-03T08:14:04Z</time>
      </trkpt>
      <trkpt lat="48.04086" lon="-3.48281">
        <ele>173.17</ele>
        <time>2012-06-03T08:14:10Z</time>
      </trkpt>
      <trkpt lat="48.04087" lon="-3.48315">
        <ele>171.25</ele>
        <time>2012-06-03T08:14:14Z</time>
      </trkpt>
      <trkpt lat="48.04099" lon="-3.4835">
        <ele>167.41</ele>
        <time>2012-06-03T08:14:19Z</time>
      </trkpt>
      <trkpt lat="48.04125" lon="-3.48365">
        <ele>167.41</ele>
        <time>2012-06-03T08:14:25Z</time>
      </trkpt>
      <trkpt lat="48.04138" lon="-3.48375">
        <ele>166.45</ele>
        <time>2012-06-03T08:14:28Z</time>
      </trkpt>
      <trkpt lat="48.04155" lon="-3.48387">
        <ele>164.04</ele>
        <time>2012-06-03T08:14:33Z</time>
      </trkpt>
      <trkpt lat="48.04169" lon="-3.48394">
        <ele>162.12</ele>
        <time>2012-06-03T08:14:36Z</time>
      </trkpt>
      <trkpt lat="48.04202" lon="-3.48421">
        <ele>158.27</ele>
        <time>2012-06-03T08:14:42Z</time>
      </trkpt>
      <trkpt lat="48.04236" lon="-3.4844">
        <ele>159.72</ele>
        <time>2012-06-03T08:14:48Z</time>
      </trkpt>
      <trkpt lat="48.04289" lon="-3.4848">
        <ele>156.35</ele>
        <time>2012-06-03T08:14:57Z</time>
      </trkpt>
      <trkpt lat="48.04303" lon="-3.48499">
        <ele>147.7</ele>
        <time>2012-06-03T08:15:04Z</time>
      </trkpt>
      <trkpt lat="48.04306" lon="-3.48504">
        <ele>149.14</ele>
        <time>2012-06-03T08:15:08Z</time>
      </trkpt>
      <trkpt lat="48.04296" lon="-3.48512">
        <ele>149.14</ele>
        <time>2012-06-03T08:15:12Z</time>
      </trkpt>
      <trkpt lat="48.04279" lon="-3.48541">
        <ele>146.74</ele>
        <time>2012-06-03T08:15:19Z</time>
      </trkpt>
      <trkpt lat="48.04262" lon="-3.48585">
        <ele>145.78</ele>
        <time>2012-06-03T08:15:25Z</time>
      </trkpt>
      <trkpt lat="48.04247" lon="-3.48641">
        <ele>142.89</ele>
        <time>2012-06-03T08:15:31Z</time>
      </trkpt>
      <trkpt lat="48.04223" lon="-3.4869">
        <ele>143.37</ele>
        <time>2012-06-03T08:15:36Z</time>
      </trkpt>
      <trkpt lat="48.04203" lon="-3.48774">
        <ele>140.97</ele>
        <time>2012-06-03T08:15:44Z</time>
      </trkpt>
      <trkpt lat="48.04174" lon="-3.48827">
        <ele>137.61</ele>
        <time>2012-06-03T08:15:50Z</time>
      </trkpt>
      <trkpt lat="48.04135" lon="-3.48898">
        <ele>127.99</ele>
        <time>2012-06-03T08:15:58Z</time>
      </trkpt>
      <trkpt lat="48.04128" lon="-3.48921">
        <ele>126.07</ele>
        <time>2012-06-03T08:16:01Z</time>
      </trkpt>
      <trkpt lat="48.04123" lon="-3.4897">
        <ele>124.15</ele>
        <time>2012-06-03T08:16:07Z</time>
      </trkpt>
      <trkpt lat="48.04114" lon="-3.48945">
        <ele>122.22</ele>
        <time>2012-06-03T08:16:12Z</time>
      </trkpt>
      <trkpt lat="48.04104" lon="-3.48916">
        <ele>110.69</ele>
        <time>2012-06-03T08:16:16Z</time>
      </trkpt>
      <trkpt lat="48.04079" lon="-3.48885">
        <ele>107.32</ele>
        <time>2012-06-03T08:16:23Z</time>
      </trkpt>
      <trkpt lat="48.04073" lon="-3.48866">
        <ele>106.84</ele>
        <time>2012-06-03T08:16:27Z</time>
      </trkpt>
      <trkpt lat="48.04067" lon="-3.48839">
        <ele>108.77</ele>
        <time>2012-06-03T08:16:30Z</time>
      </trkpt>
      <trkpt lat="48.04058" lon="-3.48754">
        <ele>122.71</ele>
        <time>2012-06-03T08:16:42Z</time>
      </trkpt>
      <trkpt lat="48.04056" lon="-3.48745">
        <ele>125.59</ele>
        <time>2012-06-03T08:16:44Z</time>
      </trkpt>
      <trkpt lat="48.04026" lon="-3.48741">
        <ele>127.99</ele>
        <time>2012-06-03T08:16:54Z</time>
      </trkpt>
      <trkpt lat="48.04006" lon="-3.48729">
        <ele>127.51</ele>
        <time>2012-06-03T08:16:59Z</time>
      </trkpt>
      <trkpt lat="48.03975" lon="-3.48667">
        <ele>124.63</ele>
        <time>2012-06-03T08:17:08Z</time>
      </trkpt>
      <trkpt lat="48.03959" lon="-3.48629">
        <ele>121.26</ele>
        <time>2012-06-03T08:17:15Z</time>
      </trkpt>
      <trkpt lat="48.03938" lon="-3.486">
        <ele>117.9</ele>
        <time>2012-06-03T08:17:21Z</time>
      </trkpt>
      <trkpt lat="48.0391" lon="-3.48552">
        <ele>115.98</ele>
        <time>2012-06-03T08:17:30Z</time>
      </trkpt>
      <trkpt lat="48.03898" lon="-3.48537">
        <ele>117.42</ele>
        <time>2012-06-03T08:17:33Z</time>
      </trkpt>
      <trkpt lat="48.03867" lon="-3.48469">
        <ele>113.09</ele>
        <time>2012-06-03T08:17:41Z</time>
      </trkpt>
      <trkpt lat="48.03857" lon="-3.48458">
        <ele>113.09</ele>
        <time>2012-06-03T08:17:43Z</time>
      </trkpt>
      <trkpt lat="48.03846" lon="-3.48442">
        <ele>114.05</ele>
        <time>2012-06-03T08:17:46Z</time>
      </trkpt>
      <trkpt lat="48.03827" lon="-3.48403">
        <ele>114.53</ele>
        <time>2012-06-03T08:17:51Z</time>
      </trkpt>
      <trkpt lat="48.03807" lon="-3.48351">
        <ele>115.98</ele>
        <time>2012-06-03T08:17:58Z</time>
      </trkpt>
      <trkpt lat="48.03779" lon="-3.48297">
        <ele>121.26</ele>
        <time>2012-06-03T08:18:06Z</time>
      </trkpt>
      <trkpt lat="48.0374" lon="-3.48194">
        <ele>115.01</ele>
        <time>2012-06-03T08:18:14Z</time>
      </trkpt>
      <trkpt lat="48.03737" lon="-3.48182">
        <ele>113.09</ele>
        <time>2012-06-03T08:18:15Z</time>
      </trkpt>
      <trkpt lat="48.03731" lon="-3.48134">
        <ele>111.65</ele>
        <time>2012-06-03T08:18:23Z</time>
      </trkpt>
      <trkpt lat="48.03728" lon="-3.48107">
        <ele>105.4</ele>
        <time>2012-06-03T08:18:29Z</time>
      </trkpt>
      <trkpt lat="48.03742" lon="-3.48089">
        <ele>102.04</ele>
        <time>2012-06-03T08:18:34Z</time>
      </trkpt>
      <trkpt lat="48.03746" lon="-3.48084">
        <ele>101.56</ele>
        <time>2012-06-03T08:18:36Z</time>
      </trkpt>
      <trkpt lat="48.0378" lon="-3.48016">
        <ele>104.44</ele>
        <time>2012-06-03T08:18:47Z</time>
      </trkpt>
      <trkpt lat="48.03812" lon="-3.47954">
        <ele>103</ele>
        <time>2012-06-03T08:18:58Z</time>
      </trkpt>
      <trkpt lat="48.03844" lon="-3.47883">
        <ele>102.52</ele>
        <time>2012-06-03T08:19:08Z</time>
      </trkpt>
      <trkpt lat="48.03872" lon="-3.47821">
        <ele>103</ele>
        <time>2012-06-03T08:19:19Z</time>
      </trkpt>
      <trkpt lat="48.03876" lon="-3.47804">
        <ele>100.6</ele>
        <time>2012-06-03T08:19:23Z</time>
      </trkpt>
      <trkpt lat="48.03879" lon="-3.47793">
        <ele>101.56</ele>
        <time>2012-06-03T08:19:25Z</time>
      </trkpt>
      <trkpt lat="48.03884" lon="-3.4778">
        <ele>100.6</ele>
        <time>2012-06-03T08:19:30Z</time>
      </trkpt>
      <trkpt lat="48.03891" lon="-3.47768">
        <ele>96.75</ele>
        <time>2012-06-03T08:19:34Z</time>
      </trkpt>
      <trkpt lat="48.03897" lon="-3.47762">
        <ele>94.35</ele>
        <time>2012-06-03T08:19:40Z</time>
      </trkpt>
      <trkpt lat="48.03896" lon="-3.47751">
        <ele>90.5</ele>
        <time>2012-06-03T08:19:50Z</time>
      </trkpt>
      <trkpt lat="48.03903" lon="-3.47737">
        <ele>84.73</ele>
        <time>2012-06-03T08:20:01Z</time>
      </trkpt>
      <trkpt lat="48.03903" lon="-3.47723">
        <ele>79.93</ele>
        <time>2012-06-03T08:20:10Z</time>
      </trkpt>
      <trkpt lat="48.03903" lon="-3.4772">
        <ele>79.45</ele>
        <time>2012-06-03T08:20:12Z</time>
      </trkpt>
      <trkpt lat="48.03901" lon="-3.477">
        <ele>78</ele>
        <time>2012-06-03T08:20:18Z</time>
      </trkpt>
      <trkpt lat="48.03905" lon="-3.47692">
        <ele>77.52</ele>
        <time>2012-06-03T08:20:23Z</time>
      </trkpt>
      <trkpt lat="48.03881" lon="-3.47697">
        <ele>74.64</ele>
        <time>2012-06-03T08:20:33Z</time>
      </trkpt>
      <trkpt lat="48.03862" lon="-3.4768">
        <ele>74.16</ele>
        <time>2012-06-03T08:20:40Z</time>
      </trkpt>
      <trkpt lat="48.03841" lon="-3.4766">
        <ele>73.2</ele>
        <time>2012-06-03T08:20:45Z</time>
      </trkpt>
      <trkpt lat="48.03818" lon="-3.47651">
        <ele>72.24</ele>
        <time>2012-06-03T08:20:49Z</time>
      </trkpt>
      <trkpt lat="48.03795" lon="-3.47651">
        <ele>72.72</ele>
        <time>2012-06-03T08:20:53Z</time>
      </trkpt>
      <trkpt lat="48.0377" lon="-3.47645">
        <ele>72.24</ele>
        <time>2012-06-03T08:20:57Z</time>
      </trkpt>
      <trkpt lat="48.03734" lon="-3.47657">
        <ele>71.76</ele>
        <time>2012-06-03T08:21:02Z</time>
      </trkpt>
      <trkpt lat="48.03714" lon="-3.47664">
        <ele>72.72</ele>
        <time>2012-06-03T08:21:05Z</time>
      </trkpt>
      <trkpt lat="48.03681" lon="-3.47659">
        <ele>72.72</ele>
        <time>2012-06-03T08:21:10Z</time>
      </trkpt>
      <trkpt lat="48.03635" lon="-3.47655">
        <ele>72.24</ele>
        <time>2012-06-03T08:21:17Z</time>
      </trkpt>
      <trkpt lat="48.03597" lon="-3.4765">
        <ele>71.27</ele>
        <time>2012-06-03T08:21:23Z</time>
      </trkpt>
      <trkpt lat="48.0354" lon="-3.47658">
        <ele>74.64</ele>
        <time>2012-06-03T08:21:32Z</time>
      </trkpt>
      <trkpt lat="48.03521" lon="-3.47665">
        <ele>75.12</ele>
        <time>2012-06-03T08:21:35Z</time>
      </trkpt>
      <trkpt lat="48.03479" lon="-3.47675">
        <ele>74.16</ele>
        <time>2012-06-03T08:21:42Z</time>
      </trkpt>
      <trkpt lat="48.03463" lon="-3.47703">
        <ele>74.16</ele>
        <time>2012-06-03T08:21:49Z</time>
      </trkpt>
      <trkpt lat="48.03464" lon="-3.47759">
        <ele>75.12</ele>
        <time>2012-06-03T08:21:59Z</time>
      </trkpt>
      <trkpt lat="48.03435" lon="-3.47787">
        <ele>72.24</ele>
        <time>2012-06-03T08:22:08Z</time>
      </trkpt>
      <trkpt lat="48.03372" lon="-3.47835">
        <ele>68.39</ele>
        <time>2012-06-03T08:22:22Z</time>
      </trkpt>
      <trkpt lat="48.03348" lon="-3.47839">
        <ele>67.91</ele>
        <time>2012-06-03T08:22:26Z</time>
      </trkpt>
      <trkpt lat="48.0323" lon="-3.47803">
        <ele>65.51</ele>
        <time>2012-06-03T08:22:43Z</time>
      </trkpt>
      <trkpt lat="48.03113" lon="-3.47778">
        <ele>63.1</ele>
        <time>2012-06-03T08:22:58Z</time>
      </trkpt>
      <trkpt lat="48.02947" lon="-3.47751">
        <ele>59.74</ele>
        <time>2012-06-03T08:23:20Z</time>
      </trkpt>
      <trkpt lat="48.0294" lon="-3.47749">
        <ele>59.74</ele>
        <time>2012-06-03T08:23:21Z</time>
      </trkpt>
      <trkpt lat="48.029" lon="-3.47718">
        <ele>58.78</ele>
        <time>2012-06-03T08:23:27Z</time>
      </trkpt>
      <trkpt lat="48.02888" lon="-3.47708">
        <ele>58.3</ele>
        <time>2012-06-03T08:23:29Z</time>
      </trkpt>
      <trkpt lat="48.02842" lon="-3.47699">
        <ele>59.26</ele>
        <time>2012-06-03T08:23:36Z</time>
      </trkpt>
      <trkpt lat="48.02811" lon="-3.47705">
        <ele>60.7</ele>
        <time>2012-06-03T08:23:41Z</time>
      </trkpt>
      <trkpt lat="48.02749" lon="-3.47719">
        <ele>61.18</ele>
        <time>2012-06-03T08:23:53Z</time>
      </trkpt>
      <trkpt lat="48.02695" lon="-3.47709">
        <ele>60.7</ele>
        <time>2012-06-03T08:24:04Z</time>
      </trkpt>
      <trkpt lat="48.02678" lon="-3.4769">
        <ele>61.18</ele>
        <time>2012-06-03T08:24:08Z</time>
      </trkpt>
      <trkpt lat="48.02656" lon="-3.47626">
        <ele>62.14</ele>
        <time>2012-06-03T08:24:18Z</time>
      </trkpt>
      <trkpt lat="48.0265" lon="-3.47611">
        <ele>62.14</ele>
        <time>2012-06-03T08:24:20Z</time>
      </trkpt>
      <trkpt lat="48.02601" lon="-3.47514">
        <ele>62.14</ele>
        <time>2012-06-03T08:24:33Z</time>
      </trkpt>
      <trkpt lat="48.02587" lon="-3.47483">
        <ele>62.62</ele>
        <time>2012-06-03T08:24:37Z</time>
      </trkpt>
      <trkpt lat="48.02544" lon="-3.47385">
        <ele>61.66</ele>
        <time>2012-06-03T08:24:49Z</time>
      </trkpt>
      <trkpt lat="48.02533" lon="-3.47342">
        <ele>62.14</ele>
        <time>2012-06-03T08:24:54Z</time>
      </trkpt>
      <trkpt lat="48.0252" lon="-3.47311">
        <ele>62.14</ele>
        <time>2012-06-03T08:24:58Z</time>
      </trkpt>
      <trkpt lat="48.02515" lon="-3.47296">
        <ele>62.62</ele>
        <time>2012-06-03T08:25:00Z</time>
      </trkpt>
      <trkpt lat="48.02501" lon="-3.47229">
        <ele>63.1</ele>
        <time>2012-06-03T08:25:08Z</time>
      </trkpt>
      <trkpt lat="48.02501" lon="-3.47167">
        <ele>63.58</ele>
        <time>2012-06-03T08:25:14Z</time>
      </trkpt>
      <trkpt lat="48.02505" lon="-3.47139">
        <ele>64.07</ele>
        <time>2012-06-03T08:25:18Z</time>
      </trkpt>
      <trkpt lat="48.02508" lon="-3.47112">
        <ele>63.1</ele>
        <time>2012-06-03T08:25:26Z</time>
      </trkpt>
      <trkpt lat="48.02507" lon="-3.47104">
        <ele>62.62</ele>
        <time>2012-06-03T08:25:28Z</time>
      </trkpt>
      <trkpt lat="48.02504" lon="-3.47074">
        <ele>62.62</ele>
        <time>2012-06-03T08:25:36Z</time>
      </trkpt>
      <trkpt lat="48.02497" lon="-3.47068">
        <ele>62.62</ele>
        <time>2012-06-03T08:25:40Z</time>
      </trkpt>
      <trkpt lat="48.0249" lon="-3.47058">
        <ele>62.62</ele>
        <time>2012-06-03T08:25:43Z</time>
      </trkpt>
      <trkpt lat="48.02468" lon="-3.47043">
        <ele>64.55</ele>
        <time>2012-06-03T08:25:53Z</time>
      </trkpt>
      <trkpt lat="48.0245" lon="-3.47044">
        <ele>65.99</ele>
        <time>2012-06-03T08:25:59Z</time>
      </trkpt>
      <trkpt lat="48.02442" lon="-3.47047">
        <ele>67.43</ele>
        <time>2012-06-03T08:26:03Z</time>
      </trkpt>
      <trkpt lat="48.02414" lon="-3.47048">
        <ele>68.39</ele>
        <time>2012-06-03T08:26:11Z</time>
      </trkpt>
      <trkpt lat="48.02397" lon="-3.47049">
        <ele>68.39</ele>
        <time>2012-06-03T08:26:15Z</time>
      </trkpt>
      <trkpt lat="48.02359" lon="-3.47059">
        <ele>68.87</ele>
        <time>2012-06-03T08:26:24Z</time>
      </trkpt>
      <trkpt lat="48.02333" lon="-3.4705">
        <ele>65.99</ele>
        <time>2012-06-03T08:26:30Z</time>
      </trkpt>
      <trkpt lat="48.02312" lon="-3.47043">
        <ele>66.95</ele>
        <time>2012-06-03T08:26:35Z</time>
      </trkpt>
      <trkpt lat="48.02298" lon="-3.4705">
        <ele>67.43</ele>
        <time>2012-06-03T08:26:39Z</time>
      </trkpt>
      <trkpt lat="48.02283" lon="-3.47039">
        <ele>66.47</ele>
        <time>2012-06-03T08:26:44Z</time>
      </trkpt>
      <trkpt lat="48.02251" lon="-3.4704">
        <ele>69.83</ele>
        <time>2012-06-03T08:26:53Z</time>
      </trkpt>
      <trkpt lat="48.02247" lon="-3.47039">
        <ele>69.83</ele>
        <time>2012-06-03T08:26:54Z</time>
      </trkpt>
      <trkpt lat="48.02209" lon="-3.47046">
        <ele>70.79</ele>
        <time>2012-06-03T08:27:03Z</time>
      </trkpt>
      <trkpt lat="48.02195" lon="-3.47048">
        <ele>71.27</ele>
        <time>2012-06-03T08:27:06Z</time>
      </trkpt>
      <trkpt lat="48.02187" lon="-3.47044">
        <ele>69.83</ele>
        <time>2012-06-03T08:27:08Z</time>
      </trkpt>
      <trkpt lat="48.02174" lon="-3.47043">
        <ele>69.35</ele>
        <time>2012-06-03T08:27:12Z</time>
      </trkpt>
      <trkpt lat="48.02165" lon="-3.47045">
        <ele>69.83</ele>
        <time>2012-06-03T08:27:14Z</time>
      </trkpt>
      <trkpt lat="48.02117" lon="-3.47049">
        <ele>68.39</ele>
        <time>2012-06-03T08:27:26Z</time>
      </trkpt>
      <trkpt lat="48.02105" lon="-3.4705">
        <ele>68.39</ele>
        <time>2012-06-03T08:27:29Z</time>
      </trkpt>
      <trkpt lat="48.02065" lon="-3.47054">
        <ele>68.87</ele>
        <time>2012-06-03T08:27:39Z</time>
      </trkpt>
      <trkpt lat="48.02054" lon="-3.47034">
        <ele>70.31</ele>
        <time>2012-06-03T08:27:47Z</time>
      </trkpt>
      <trkpt lat="48.02034" lon="-3.47023">
        <ele>70.79</ele>
        <time>2012-06-03T08:27:55Z</time>
      </trkpt>
      <trkpt lat="48.02029" lon="-3.47018">
        <ele>70.79</ele>
        <time>2012-06-03T08:27:57Z</time>
      </trkpt>
      <trkpt lat="48.02018" lon="-3.47004">
        <ele>71.27</ele>
        <time>2012-06-03T08:28:01Z</time>
      </trkpt>
      <trkpt lat="48.02004" lon="-3.46996">
        <ele>71.76</ele>
        <time>2012-06-03T08:28:05Z</time>
      </trkpt>
      <trkpt lat="48.01996" lon="-3.46991">
        <ele>72.24</ele>
        <time>2012-06-03T08:28:09Z</time>
      </trkpt>
      <trkpt lat="48.01992" lon="-3.46989">
        <ele>73.2</ele>
        <time>2012-06-03T08:28:11Z</time>
      </trkpt>
      <trkpt lat="48.01993" lon="-3.47004">
        <ele>73.68</ele>
        <time>2012-06-03T08:28:15Z</time>
      </trkpt>
      <trkpt lat="48.01991" lon="-3.47025">
        <ele>70.31</ele>
        <time>2012-06-03T08:28:24Z</time>
      </trkpt>
      <trkpt lat="48.01988" lon="-3.47035">
        <ele>69.35</ele>
        <time>2012-06-03T08:28:37Z</time>
      </trkpt>
      <trkpt lat="48.01988" lon="-3.47035">
        <ele>68.87</ele>
        <time>2012-06-03T08:29:45Z</time>
      </trkpt>
      <trkpt lat="48.02001" lon="-3.47071">
        <ele>68.87</ele>
        <time>2012-06-03T08:29:54Z</time>
      </trkpt>
      <trkpt lat="48.02007" lon="-3.47081">
        <ele>67.91</ele>
        <time>2012-06-03T08:29:56Z</time>
      </trkpt>
      <trkpt lat="48.02014" lon="-3.47097">
        <ele>65.99</ele>
        <time>2012-06-03T08:29:59Z</time>
      </trkpt>
      <trkpt lat="48.02022" lon="-3.47131">
        <ele>62.14</ele>
        <time>2012-06-03T08:30:04Z</time>
      </trkpt>
      <trkpt lat="48.02029" lon="-3.47167">
        <ele>58.78</ele>
        <time>2012-06-03T08:30:09Z</time>
      </trkpt>
      <trkpt lat="48.0203" lon="-3.47194">
        <ele>56.37</ele>
        <time>2012-06-03T08:30:14Z</time>
      </trkpt>
      <trkpt lat="48.02018" lon="-3.47215">
        <ele>53.49</ele>
        <time>2012-06-03T08:30:19Z</time>
      </trkpt>
      <trkpt lat="48.01988" lon="-3.47242">
        <ele>51.57</ele>
        <time>2012-06-03T08:30:29Z</time>
      </trkpt>
      <trkpt lat="48.01987" lon="-3.47253">
        <ele>50.61</ele>
        <time>2012-06-03T08:30:32Z</time>
      </trkpt>
      <trkpt lat="48.01975" lon="-3.47273">
        <ele>48.68</ele>
        <time>2012-06-03T08:30:40Z</time>
      </trkpt>
      <trkpt lat="48.01976" lon="-3.47276">
        <ele>48.2</ele>
        <time>2012-06-03T08:30:41Z</time>
      </trkpt>
      <trkpt lat="48.01961" lon="-3.47302">
        <ele>45.32</ele>
        <time>2012-06-03T08:30:52Z</time>
      </trkpt>
      <trkpt lat="48.01928" lon="-3.47325">
        <ele>40.51</ele>
        <time>2012-06-03T08:31:04Z</time>
      </trkpt>
      <trkpt lat="48.01925" lon="-3.47332">
        <ele>40.51</ele>
        <time>2012-06-03T08:31:06Z</time>
      </trkpt>
      <trkpt lat="48.01905" lon="-3.47346">
        <ele>41.47</ele>
        <time>2012-06-03T08:31:14Z</time>
      </trkpt>
      <trkpt lat="48.01891" lon="-3.47359">
        <ele>43.88</ele>
        <time>2012-06-03T08:31:20Z</time>
      </trkpt>
      <trkpt lat="48.01865" lon="-3.47334">
        <ele>56.86</ele>
        <time>2012-06-03T08:31:31Z</time>
      </trkpt>
      <trkpt lat="48.01854" lon="-3.47346">
        <ele>59.74</ele>
        <time>2012-06-03T08:31:36Z</time>
      </trkpt>
      <trkpt lat="48.01856" lon="-3.47368">
        <ele>64.55</ele>
        <time>2012-06-03T08:31:43Z</time>
      </trkpt>
      <trkpt lat="48.01865" lon="-3.47401">
        <ele>66.47</ele>
        <time>2012-06-03T08:31:52Z</time>
      </trkpt>
      <trkpt lat="48.01875" lon="-3.47455">
        <ele>65.03</ele>
        <time>2012-06-03T08:32:03Z</time>
      </trkpt>
      <trkpt lat="48.01887" lon="-3.47514">
        <ele>62.14</ele>
        <time>2012-06-03T08:32:14Z</time>
      </trkpt>
      <trkpt lat="48.01893" lon="-3.4757">
        <ele>59.74</ele>
        <time>2012-06-03T08:32:23Z</time>
      </trkpt>
      <trkpt lat="48.01893" lon="-3.47614">
        <ele>54.93</ele>
        <time>2012-06-03T08:32:32Z</time>
      </trkpt>
      <trkpt lat="48.01902" lon="-3.47659">
        <ele>50.61</ele>
        <time>2012-06-03T08:32:41Z</time>
      </trkpt>
      <trkpt lat="48.01903" lon="-3.4767">
        <ele>49.65</ele>
        <time>2012-06-03T08:32:43Z</time>
      </trkpt>
      <trkpt lat="48.01901" lon="-3.47691">
        <ele>48.2</ele>
        <time>2012-06-03T08:32:47Z</time>
      </trkpt>
      <trkpt lat="48.019" lon="-3.47701">
        <ele>47.72</ele>
        <time>2012-06-03T08:32:49Z</time>
      </trkpt>
      <trkpt lat="48.01902" lon="-3.47748">
        <ele>44.84</ele>
        <time>2012-06-03T08:33:00Z</time>
      </trkpt>
      <trkpt lat="48.01884" lon="-3.47811">
        <ele>47.24</ele>
        <time>2012-06-03T08:33:11Z</time>
      </trkpt>
      <trkpt lat="48.01879" lon="-3.47902">
        <ele>54.93</ele>
        <time>2012-06-03T08:33:28Z</time>
      </trkpt>
      <trkpt lat="48.01879" lon="-3.4794">
        <ele>58.3</ele>
        <time>2012-06-03T08:33:39Z</time>
      </trkpt>
      <trkpt lat="48.01876" lon="-3.47975">
        <ele>58.78</ele>
        <time>2012-06-03T08:33:46Z</time>
      </trkpt>
      <trkpt lat="48.0187" lon="-3.47993">
        <ele>58.78</ele>
        <time>2012-06-03T08:33:50Z</time>
      </trkpt>
      <trkpt lat="48.01853" lon="-3.48019">
        <ele>59.74</ele>
        <time>2012-06-03T08:33:57Z</time>
      </trkpt>
      <trkpt lat="48.01846" lon="-3.48046">
        <ele>60.7</ele>
        <time>2012-06-03T08:34:04Z</time>
      </trkpt>
      <trkpt lat="48.01845" lon="-3.48093">
        <ele>59.74</ele>
        <time>2012-06-03T08:34:12Z</time>
      </trkpt>
      <trkpt lat="48.01851" lon="-3.48113">
        <ele>60.7</ele>
        <time>2012-06-03T08:34:16Z</time>
      </trkpt>
      <trkpt lat="48.01849" lon="-3.4814">
        <ele>65.03</ele>
        <time>2012-06-03T08:34:22Z</time>
      </trkpt>
      <trkpt lat="48.01828" lon="-3.48198">
        <ele>72.72</ele>
        <time>2012-06-03T08:34:30Z</time>
      </trkpt>
      <trkpt lat="48.01808" lon="-3.48287">
        <ele>86.66</ele>
        <time>2012-06-03T08:34:41Z</time>
      </trkpt>
      <trkpt lat="48.01807" lon="-3.48292">
        <ele>86.66</ele>
        <time>2012-06-03T08:34:42Z</time>
      </trkpt>
      <trkpt lat="48.01802" lon="-3.4833">
        <ele>87.62</ele>
        <time>2012-06-03T08:34:50Z</time>
      </trkpt>
      <trkpt lat="48.01798" lon="-3.48358">
        <ele>90.98</ele>
        <time>2012-06-03T08:34:58Z</time>
      </trkpt>
      <trkpt lat="48.01797" lon="-3.48367">
        <ele>92.9</ele>
        <time>2012-06-03T08:35:02Z</time>
      </trkpt>
      <trkpt lat="48.01779" lon="-3.48392">
        <ele>96.75</ele>
        <time>2012-06-03T08:35:15Z</time>
      </trkpt>
      <trkpt lat="48.01772" lon="-3.48414">
        <ele>99.63</ele>
        <time>2012-06-03T08:35:22Z</time>
      </trkpt>
      <trkpt lat="48.01759" lon="-3.48442">
        <ele>102.52</ele>
        <time>2012-06-03T08:35:34Z</time>
      </trkpt>
      <trkpt lat="48.01749" lon="-3.48461">
        <ele>104.44</ele>
        <time>2012-06-03T08:35:42Z</time>
      </trkpt>
      <trkpt lat="48.01742" lon="-3.4847">
        <ele>104.92</ele>
        <time>2012-06-03T08:35:46Z</time>
      </trkpt>
      <trkpt lat="48.01726" lon="-3.48494">
        <ele>107.32</ele>
        <time>2012-06-03T08:35:56Z</time>
      </trkpt>
      <trkpt lat="48.01719" lon="-3.48505">
        <ele>109.73</ele>
        <time>2012-06-03T08:36:01Z</time>
      </trkpt>
      <trkpt lat="48.01714" lon="-3.4851">
        <ele>110.69</ele>
        <time>2012-06-03T08:36:04Z</time>
      </trkpt>
      <trkpt lat="48.01704" lon="-3.48534">
        <ele>113.57</ele>
        <time>2012-06-03T08:36:13Z</time>
      </trkpt>
      <trkpt lat="48.01686" lon="-3.48569">
        <ele>115.5</ele>
        <time>2012-06-03T08:36:25Z</time>
      </trkpt>
      <trkpt lat="48.01681" lon="-3.48579">
        <ele>116.46</ele>
        <time>2012-06-03T08:36:29Z</time>
      </trkpt>
      <trkpt lat="48.01674" lon="-3.4859">
        <ele>118.38</ele>
        <time>2012-06-03T08:36:35Z</time>
      </trkpt>
      <trkpt lat="48.0167" lon="-3.486">
        <ele>118.38</ele>
        <time>2012-06-03T08:36:40Z</time>
      </trkpt>
      <trkpt lat="48.01663" lon="-3.48611">
        <ele>117.9</ele>
        <time>2012-06-03T08:36:46Z</time>
      </trkpt>
      <trkpt lat="48.01655" lon="-3.48634">
        <ele>115.5</ele>
        <time>2012-06-03T08:36:53Z</time>
      </trkpt>
      <trkpt lat="48.01649" lon="-3.48655">
        <ele>111.65</ele>
        <time>2012-06-03T08:37:03Z</time>
      </trkpt>
      <trkpt lat="48.01651" lon="-3.48669">
        <ele>111.17</ele>
        <time>2012-06-03T08:37:07Z</time>
      </trkpt>
      <trkpt lat="48.01682" lon="-3.48692">
        <ele>106.84</ele>
        <time>2012-06-03T08:37:19Z</time>
      </trkpt>
      <trkpt lat="48.01687" lon="-3.48697">
        <ele>105.4</ele>
        <time>2012-06-03T08:37:21Z</time>
      </trkpt>
      <trkpt lat="48.01714" lon="-3.48702">
        <ele>101.08</ele>
        <time>2012-06-03T08:37:26Z</time>
      </trkpt>
      <trkpt lat="48.01736" lon="-3.48702">
        <ele>99.15</ele>
        <time>2012-06-03T08:37:30Z</time>
      </trkpt>
      <trkpt lat="48.01754" lon="-3.48701">
        <ele>96.75</ele>
        <time>2012-06-03T08:37:33Z</time>
      </trkpt>
      <trkpt lat="48.01787" lon="-3.48701">
        <ele>93.87</ele>
        <time>2012-06-03T08:37:38Z</time>
      </trkpt>
      <trkpt lat="48.01815" lon="-3.48702">
        <ele>90.98</ele>
        <time>2012-06-03T08:37:44Z</time>
      </trkpt>
      <trkpt lat="48.0184" lon="-3.48706">
        <ele>85.69</ele>
        <time>2012-06-03T08:37:49Z</time>
      </trkpt>
      <trkpt lat="48.01879" lon="-3.48714">
        <ele>85.21</ele>
        <time>2012-06-03T08:37:55Z</time>
      </trkpt>
      <trkpt lat="48.01888" lon="-3.48716">
        <ele>85.21</ele>
        <time>2012-06-03T08:37:57Z</time>
      </trkpt>
      <trkpt lat="48.01895" lon="-3.48717">
        <ele>85.21</ele>
        <time>2012-06-03T08:37:59Z</time>
      </trkpt>
      <trkpt lat="48.01905" lon="-3.48733">
        <ele>84.25</ele>
        <time>2012-06-03T08:38:03Z</time>
      </trkpt>
      <trkpt lat="48.01904" lon="-3.4875">
        <ele>83.29</ele>
        <time>2012-06-03T08:38:10Z</time>
      </trkpt>
      <trkpt lat="48.01897" lon="-3.4879">
        <ele>80.89</ele>
        <time>2012-06-03T08:38:20Z</time>
      </trkpt>
      <trkpt lat="48.01894" lon="-3.48803">
        <ele>79.45</ele>
        <time>2012-06-03T08:38:23Z</time>
      </trkpt>
    </trkseg>
  </trk>
</gpx>